<?xml version="1.0" encoding="UTF-8" standalone="no" ?>
<gpx xmlns="http://www.topografix.com/GPX/1/1" xmlns:xsi="http://www.w3.org/2001/XMLSchema-instance" xsi:schemaLocation="http://www.topografix.com/GPX/1/1 http://www.topografix.com/GPX/1/1/gpx.xsd" version="1.1" creator="VisuGPX - https://www.visugpx.com">
  <metadata>
    <name>M - 83 - COTIGNAC</name>
    <desc><![CDATA[COTIGNAC - le Gros Bessillon]]></desc>
  </metadata>
  <wpt lat="43.53443" lon="6.12049">
    <ele>486</ele>
    <name><![CDATA[Point de passage 1]]></name>
    <type><![CDATA[GENERIC]]></type>
  </wpt>
  <wpt lat="43.53469" lon="6.12097">
    <ele>475</ele>
    <name><![CDATA[Point de passage 2]]></name>
    <type><![CDATA[GENERIC]]></type>
  </wpt>
  <trk>
    <name><![CDATA[Le gros Bessillon]]></name>
    <trkseg>
      <trkpt lat="43.53443" lon="6.12049">
        <ele>486</ele>
        <time>2025-10-15T12:21:55.000Z</time>
      </trkpt>
      <trkpt lat="43.5344" lon="6.12046">
        <ele>487</ele>
        <time>2025-10-15T12:21:58.000Z</time>
      </trkpt>
      <trkpt lat="43.5343" lon="6.12037">
        <ele>487</ele>
        <time>2025-10-15T12:22:10.000Z</time>
      </trkpt>
      <trkpt lat="43.5342" lon="6.12024">
        <ele>487</ele>
        <time>2025-10-15T12:22:22.000Z</time>
      </trkpt>
      <trkpt lat="43.53409" lon="6.12013">
        <ele>487</ele>
        <time>2025-10-15T12:22:34.000Z</time>
      </trkpt>
      <trkpt lat="43.53397" lon="6.12002">
        <ele>487</ele>
        <time>2025-10-15T12:22:49.000Z</time>
      </trkpt>
      <trkpt lat="43.53385" lon="6.11988">
        <ele>488</ele>
        <time>2025-10-15T12:23:04.000Z</time>
      </trkpt>
      <trkpt lat="43.53375" lon="6.11974">
        <ele>488</ele>
        <time>2025-10-15T12:23:19.000Z</time>
      </trkpt>
      <trkpt lat="43.53365" lon="6.11962">
        <ele>489</ele>
        <time>2025-10-15T12:23:31.000Z</time>
      </trkpt>
      <trkpt lat="43.53355" lon="6.11948">
        <ele>489</ele>
        <time>2025-10-15T12:23:43.000Z</time>
      </trkpt>
      <trkpt lat="43.53345" lon="6.11935">
        <ele>490</ele>
        <time>2025-10-15T12:23:55.000Z</time>
      </trkpt>
      <trkpt lat="43.53332" lon="6.11923">
        <ele>490</ele>
        <time>2025-10-15T12:24:08.000Z</time>
      </trkpt>
      <trkpt lat="43.53318" lon="6.11915">
        <ele>491</ele>
        <time>2025-10-15T12:24:20.000Z</time>
      </trkpt>
      <trkpt lat="43.53304" lon="6.11908">
        <ele>491</ele>
        <time>2025-10-15T12:24:32.000Z</time>
      </trkpt>
      <trkpt lat="43.53291" lon="6.11902">
        <ele>491</ele>
        <time>2025-10-15T12:24:44.000Z</time>
      </trkpt>
      <trkpt lat="43.53283" lon="6.11896">
        <ele>491</ele>
        <time>2025-10-15T12:25:59.000Z</time>
      </trkpt>
      <trkpt lat="43.53293" lon="6.11906">
        <ele>490</ele>
        <time>2025-10-15T12:26:59.000Z</time>
      </trkpt>
      <trkpt lat="43.53307" lon="6.11912">
        <ele>490</ele>
        <time>2025-10-15T12:27:11.000Z</time>
      </trkpt>
      <trkpt lat="43.53317" lon="6.11915">
        <ele>489</ele>
        <time>2025-10-15T12:27:23.000Z</time>
      </trkpt>
      <trkpt lat="43.53307" lon="6.11919">
        <ele>488</ele>
        <time>2025-10-15T12:27:41.000Z</time>
      </trkpt>
      <trkpt lat="43.53294" lon="6.11922">
        <ele>486</ele>
        <time>2025-10-15T12:27:56.000Z</time>
      </trkpt>
      <trkpt lat="43.53278" lon="6.11922">
        <ele>484</ele>
        <time>2025-10-15T12:28:11.000Z</time>
      </trkpt>
      <trkpt lat="43.53262" lon="6.11921">
        <ele>482</ele>
        <time>2025-10-15T12:28:26.000Z</time>
      </trkpt>
      <trkpt lat="43.53248" lon="6.11923">
        <ele>480</ele>
        <time>2025-10-15T12:28:41.000Z</time>
      </trkpt>
      <trkpt lat="43.53235" lon="6.11923">
        <ele>478</ele>
        <time>2025-10-15T12:29:02.000Z</time>
      </trkpt>
      <trkpt lat="43.53224" lon="6.11913">
        <ele>477</ele>
        <time>2025-10-15T12:29:17.000Z</time>
      </trkpt>
      <trkpt lat="43.53214" lon="6.11899">
        <ele>475</ele>
        <time>2025-10-15T12:29:29.000Z</time>
      </trkpt>
      <trkpt lat="43.53204" lon="6.11886">
        <ele>474</ele>
        <time>2025-10-15T12:29:44.000Z</time>
      </trkpt>
      <trkpt lat="43.53194" lon="6.11873">
        <ele>473</ele>
        <time>2025-10-15T12:29:59.000Z</time>
      </trkpt>
      <trkpt lat="43.53182" lon="6.11865">
        <ele>472</ele>
        <time>2025-10-15T12:30:11.000Z</time>
      </trkpt>
      <trkpt lat="43.5317" lon="6.11856">
        <ele>471</ele>
        <time>2025-10-15T12:30:26.000Z</time>
      </trkpt>
      <trkpt lat="43.5316" lon="6.11842">
        <ele>471</ele>
        <time>2025-10-15T12:30:41.000Z</time>
      </trkpt>
      <trkpt lat="43.5315" lon="6.11828">
        <ele>471</ele>
        <time>2025-10-15T12:30:53.000Z</time>
      </trkpt>
      <trkpt lat="43.53143" lon="6.11809">
        <ele>471</ele>
        <time>2025-10-15T12:31:08.000Z</time>
      </trkpt>
      <trkpt lat="43.5314" lon="6.11791">
        <ele>471</ele>
        <time>2025-10-15T12:31:20.000Z</time>
      </trkpt>
      <trkpt lat="43.53137" lon="6.11772">
        <ele>471</ele>
        <time>2025-10-15T12:31:32.000Z</time>
      </trkpt>
      <trkpt lat="43.53127" lon="6.11757">
        <ele>472</ele>
        <time>2025-10-15T12:31:47.000Z</time>
      </trkpt>
      <trkpt lat="43.53117" lon="6.11743">
        <ele>472</ele>
        <time>2025-10-15T12:31:59.000Z</time>
      </trkpt>
      <trkpt lat="43.53109" lon="6.11728">
        <ele>472</ele>
        <time>2025-10-15T12:32:11.000Z</time>
      </trkpt>
      <trkpt lat="43.53108" lon="6.11709">
        <ele>473</ele>
        <time>2025-10-15T12:32:23.000Z</time>
      </trkpt>
      <trkpt lat="43.53108" lon="6.11688">
        <ele>473</ele>
        <time>2025-10-15T12:32:38.000Z</time>
      </trkpt>
      <trkpt lat="43.53103" lon="6.11671">
        <ele>474</ele>
        <time>2025-10-15T12:32:50.000Z</time>
      </trkpt>
      <trkpt lat="43.53091" lon="6.1166">
        <ele>475</ele>
        <time>2025-10-15T12:33:05.000Z</time>
      </trkpt>
      <trkpt lat="43.53078" lon="6.11652">
        <ele>476</ele>
        <time>2025-10-15T12:33:17.000Z</time>
      </trkpt>
      <trkpt lat="43.53067" lon="6.11639">
        <ele>476</ele>
        <time>2025-10-15T12:33:29.000Z</time>
      </trkpt>
      <trkpt lat="43.53062" lon="6.11622">
        <ele>477</ele>
        <time>2025-10-15T12:33:41.000Z</time>
      </trkpt>
      <trkpt lat="43.53064" lon="6.11603">
        <ele>477</ele>
        <time>2025-10-15T12:33:53.000Z</time>
      </trkpt>
      <trkpt lat="43.5307" lon="6.11585">
        <ele>478</ele>
        <time>2025-10-15T12:34:05.000Z</time>
      </trkpt>
      <trkpt lat="43.53073" lon="6.11566">
        <ele>478</ele>
        <time>2025-10-15T12:34:20.000Z</time>
      </trkpt>
      <trkpt lat="43.53065" lon="6.11554">
        <ele>479</ele>
        <time>2025-10-15T12:34:32.000Z</time>
      </trkpt>
      <trkpt lat="43.53054" lon="6.11543">
        <ele>479</ele>
        <time>2025-10-15T12:34:44.000Z</time>
      </trkpt>
      <trkpt lat="43.53044" lon="6.11529">
        <ele>480</ele>
        <time>2025-10-15T12:34:56.000Z</time>
      </trkpt>
      <trkpt lat="43.53038" lon="6.1151">
        <ele>480</ele>
        <time>2025-10-15T12:35:08.000Z</time>
      </trkpt>
      <trkpt lat="43.5304" lon="6.1149">
        <ele>480</ele>
        <time>2025-10-15T12:35:23.000Z</time>
      </trkpt>
      <trkpt lat="43.53047" lon="6.11471">
        <ele>480</ele>
        <time>2025-10-15T12:35:38.000Z</time>
      </trkpt>
      <trkpt lat="43.53057" lon="6.11457">
        <ele>481</ele>
        <time>2025-10-15T12:35:50.000Z</time>
      </trkpt>
      <trkpt lat="43.53066" lon="6.11443">
        <ele>482</ele>
        <time>2025-10-15T12:36:02.000Z</time>
      </trkpt>
      <trkpt lat="43.53075" lon="6.1143">
        <ele>482</ele>
        <time>2025-10-15T12:36:14.000Z</time>
      </trkpt>
      <trkpt lat="43.53086" lon="6.11418">
        <ele>483</ele>
        <time>2025-10-15T12:36:26.000Z</time>
      </trkpt>
      <trkpt lat="43.53099" lon="6.11406">
        <ele>484</ele>
        <time>2025-10-15T12:36:38.000Z</time>
      </trkpt>
      <trkpt lat="43.53111" lon="6.11395">
        <ele>485</ele>
        <time>2025-10-15T12:36:50.000Z</time>
      </trkpt>
      <trkpt lat="43.53123" lon="6.11383">
        <ele>485</ele>
        <time>2025-10-15T12:37:03.000Z</time>
      </trkpt>
      <trkpt lat="43.53135" lon="6.11368">
        <ele>486</ele>
        <time>2025-10-15T12:37:18.000Z</time>
      </trkpt>
      <trkpt lat="43.53144" lon="6.11353">
        <ele>487</ele>
        <time>2025-10-15T12:37:30.000Z</time>
      </trkpt>
      <trkpt lat="43.53154" lon="6.11336">
        <ele>488</ele>
        <time>2025-10-15T12:37:42.000Z</time>
      </trkpt>
      <trkpt lat="43.53161" lon="6.11317">
        <ele>489</ele>
        <time>2025-10-15T12:37:54.000Z</time>
      </trkpt>
      <trkpt lat="43.53166" lon="6.11299">
        <ele>490</ele>
        <time>2025-10-15T12:38:06.000Z</time>
      </trkpt>
      <trkpt lat="43.53171" lon="6.11281">
        <ele>491</ele>
        <time>2025-10-15T12:38:21.000Z</time>
      </trkpt>
      <trkpt lat="43.53172" lon="6.1126">
        <ele>491</ele>
        <time>2025-10-15T12:38:33.000Z</time>
      </trkpt>
      <trkpt lat="43.53172" lon="6.11241">
        <ele>492</ele>
        <time>2025-10-15T12:38:45.000Z</time>
      </trkpt>
      <trkpt lat="43.53172" lon="6.11222">
        <ele>492</ele>
        <time>2025-10-15T12:38:57.000Z</time>
      </trkpt>
      <trkpt lat="43.53171" lon="6.11204">
        <ele>492</ele>
        <time>2025-10-15T12:39:09.000Z</time>
      </trkpt>
      <trkpt lat="43.53171" lon="6.11185">
        <ele>492</ele>
        <time>2025-10-15T12:39:21.000Z</time>
      </trkpt>
      <trkpt lat="43.53173" lon="6.11165">
        <ele>493</ele>
        <time>2025-10-15T12:39:33.000Z</time>
      </trkpt>
      <trkpt lat="43.53182" lon="6.11147">
        <ele>494</ele>
        <time>2025-10-15T12:39:48.000Z</time>
      </trkpt>
      <trkpt lat="43.5319" lon="6.1113">
        <ele>495</ele>
        <time>2025-10-15T12:40:00.000Z</time>
      </trkpt>
      <trkpt lat="43.53189" lon="6.11112">
        <ele>495</ele>
        <time>2025-10-15T12:40:12.000Z</time>
      </trkpt>
      <trkpt lat="43.53184" lon="6.11092">
        <ele>496</ele>
        <time>2025-10-15T12:40:27.000Z</time>
      </trkpt>
      <trkpt lat="43.5318" lon="6.11072">
        <ele>497</ele>
        <time>2025-10-15T12:40:39.000Z</time>
      </trkpt>
      <trkpt lat="43.53177" lon="6.11051">
        <ele>497</ele>
        <time>2025-10-15T12:40:54.000Z</time>
      </trkpt>
      <trkpt lat="43.53172" lon="6.11033">
        <ele>498</ele>
        <time>2025-10-15T12:41:06.000Z</time>
      </trkpt>
      <trkpt lat="43.53165" lon="6.11016">
        <ele>499</ele>
        <time>2025-10-15T12:41:18.000Z</time>
      </trkpt>
      <trkpt lat="43.53159" lon="6.10997">
        <ele>499</ele>
        <time>2025-10-15T12:41:30.000Z</time>
      </trkpt>
      <trkpt lat="43.53157" lon="6.10977">
        <ele>500</ele>
        <time>2025-10-15T12:41:45.000Z</time>
      </trkpt>
      <trkpt lat="43.53155" lon="6.10957">
        <ele>500</ele>
        <time>2025-10-15T12:41:57.000Z</time>
      </trkpt>
      <trkpt lat="43.53149" lon="6.1094">
        <ele>500</ele>
        <time>2025-10-15T12:42:09.000Z</time>
      </trkpt>
      <trkpt lat="43.53143" lon="6.10923">
        <ele>501</ele>
        <time>2025-10-15T12:42:21.000Z</time>
      </trkpt>
      <trkpt lat="43.53134" lon="6.10904">
        <ele>502</ele>
        <time>2025-10-15T12:42:36.000Z</time>
      </trkpt>
      <trkpt lat="43.53124" lon="6.10887">
        <ele>502</ele>
        <time>2025-10-15T12:42:48.000Z</time>
      </trkpt>
      <trkpt lat="43.53117" lon="6.10868">
        <ele>503</ele>
        <time>2025-10-15T12:43:03.000Z</time>
      </trkpt>
      <trkpt lat="43.53112" lon="6.1085">
        <ele>504</ele>
        <time>2025-10-15T12:43:16.000Z</time>
      </trkpt>
      <trkpt lat="43.5311" lon="6.10829">
        <ele>504</ele>
        <time>2025-10-15T12:43:31.000Z</time>
      </trkpt>
      <trkpt lat="43.53112" lon="6.1081">
        <ele>505</ele>
        <time>2025-10-15T12:43:43.000Z</time>
      </trkpt>
      <trkpt lat="43.53112" lon="6.1079">
        <ele>505</ele>
        <time>2025-10-15T12:43:55.000Z</time>
      </trkpt>
      <trkpt lat="43.53106" lon="6.10774">
        <ele>506</ele>
        <time>2025-10-15T12:44:07.000Z</time>
      </trkpt>
      <trkpt lat="43.53094" lon="6.10763">
        <ele>505</ele>
        <time>2025-10-15T12:44:19.000Z</time>
      </trkpt>
      <trkpt lat="43.5308" lon="6.10752">
        <ele>505</ele>
        <time>2025-10-15T12:44:34.000Z</time>
      </trkpt>
      <trkpt lat="43.53065" lon="6.10742">
        <ele>504</ele>
        <time>2025-10-15T12:44:46.000Z</time>
      </trkpt>
      <trkpt lat="43.53053" lon="6.10728">
        <ele>503</ele>
        <time>2025-10-15T12:44:58.000Z</time>
      </trkpt>
      <trkpt lat="43.53054" lon="6.1071">
        <ele>502</ele>
        <time>2025-10-15T12:48:16.000Z</time>
      </trkpt>
      <trkpt lat="43.53065" lon="6.10697">
        <ele>502</ele>
        <time>2025-10-15T12:48:31.000Z</time>
      </trkpt>
      <trkpt lat="43.53075" lon="6.10685">
        <ele>502</ele>
        <time>2025-10-15T12:48:43.000Z</time>
      </trkpt>
      <trkpt lat="43.53088" lon="6.10675">
        <ele>502</ele>
        <time>2025-10-15T12:48:55.000Z</time>
      </trkpt>
      <trkpt lat="43.53101" lon="6.10662">
        <ele>502</ele>
        <time>2025-10-15T12:49:10.000Z</time>
      </trkpt>
      <trkpt lat="43.53112" lon="6.1065">
        <ele>502</ele>
        <time>2025-10-15T12:49:22.000Z</time>
      </trkpt>
      <trkpt lat="43.53122" lon="6.10636">
        <ele>502</ele>
        <time>2025-10-15T12:49:34.000Z</time>
      </trkpt>
      <trkpt lat="43.53133" lon="6.10623">
        <ele>502</ele>
        <time>2025-10-15T12:49:46.000Z</time>
      </trkpt>
      <trkpt lat="43.53146" lon="6.10613">
        <ele>502</ele>
        <time>2025-10-15T12:49:58.000Z</time>
      </trkpt>
      <trkpt lat="43.53161" lon="6.10608">
        <ele>502</ele>
        <time>2025-10-15T12:50:10.000Z</time>
      </trkpt>
      <trkpt lat="43.53174" lon="6.106">
        <ele>502</ele>
        <time>2025-10-15T12:50:22.000Z</time>
      </trkpt>
      <trkpt lat="43.53186" lon="6.10589">
        <ele>502</ele>
        <time>2025-10-15T12:50:34.000Z</time>
      </trkpt>
      <trkpt lat="43.53199" lon="6.10581">
        <ele>502</ele>
        <time>2025-10-15T12:50:46.000Z</time>
      </trkpt>
      <trkpt lat="43.53211" lon="6.10571">
        <ele>503</ele>
        <time>2025-10-15T12:50:58.000Z</time>
      </trkpt>
      <trkpt lat="43.53223" lon="6.10561">
        <ele>503</ele>
        <time>2025-10-15T12:51:10.000Z</time>
      </trkpt>
      <trkpt lat="43.53235" lon="6.10548">
        <ele>504</ele>
        <time>2025-10-15T12:51:22.000Z</time>
      </trkpt>
      <trkpt lat="43.53242" lon="6.10532">
        <ele>505</ele>
        <time>2025-10-15T12:51:49.000Z</time>
      </trkpt>
      <trkpt lat="43.53255" lon="6.10524">
        <ele>506</ele>
        <time>2025-10-15T12:52:16.000Z</time>
      </trkpt>
      <trkpt lat="43.53269" lon="6.10518">
        <ele>507</ele>
        <time>2025-10-15T12:52:34.000Z</time>
      </trkpt>
      <trkpt lat="43.53281" lon="6.10512">
        <ele>509</ele>
        <time>2025-10-15T12:52:49.000Z</time>
      </trkpt>
      <trkpt lat="43.53296" lon="6.1051">
        <ele>512</ele>
        <time>2025-10-15T12:53:07.000Z</time>
      </trkpt>
      <trkpt lat="43.53311" lon="6.10502">
        <ele>514</ele>
        <time>2025-10-15T12:53:25.000Z</time>
      </trkpt>
      <trkpt lat="43.53324" lon="6.1049">
        <ele>517</ele>
        <time>2025-10-15T12:53:43.000Z</time>
      </trkpt>
      <trkpt lat="43.53336" lon="6.10479">
        <ele>520</ele>
        <time>2025-10-15T12:54:02.000Z</time>
      </trkpt>
      <trkpt lat="43.53347" lon="6.10465">
        <ele>522</ele>
        <time>2025-10-15T12:54:26.000Z</time>
      </trkpt>
      <trkpt lat="43.5336" lon="6.10457">
        <ele>524</ele>
        <time>2025-10-15T12:54:47.000Z</time>
      </trkpt>
      <trkpt lat="43.53372" lon="6.10446">
        <ele>527</ele>
        <time>2025-10-15T12:55:02.000Z</time>
      </trkpt>
      <trkpt lat="43.53383" lon="6.10433">
        <ele>530</ele>
        <time>2025-10-15T12:55:23.000Z</time>
      </trkpt>
      <trkpt lat="43.53394" lon="6.1042">
        <ele>536</ele>
        <time>2025-10-15T12:55:47.000Z</time>
      </trkpt>
      <trkpt lat="43.53407" lon="6.10413">
        <ele>541</ele>
        <time>2025-10-15T12:56:11.000Z</time>
      </trkpt>
      <trkpt lat="43.5342" lon="6.10409">
        <ele>547</ele>
        <time>2025-10-15T12:56:56.000Z</time>
      </trkpt>
      <trkpt lat="43.53434" lon="6.10407">
        <ele>552</ele>
        <time>2025-10-15T12:57:35.000Z</time>
      </trkpt>
      <trkpt lat="43.53448" lon="6.10408">
        <ele>557</ele>
        <time>2025-10-15T12:58:38.000Z</time>
      </trkpt>
      <trkpt lat="43.53462" lon="6.10408">
        <ele>562</ele>
        <time>2025-10-15T12:59:08.000Z</time>
      </trkpt>
      <trkpt lat="43.53475" lon="6.10408">
        <ele>566</ele>
        <time>2025-10-15T12:59:41.000Z</time>
      </trkpt>
      <trkpt lat="43.53488" lon="6.10404">
        <ele>571</ele>
        <time>2025-10-15T13:00:17.000Z</time>
      </trkpt>
      <trkpt lat="43.53501" lon="6.1041">
        <ele>577</ele>
        <time>2025-10-15T13:00:50.000Z</time>
      </trkpt>
      <trkpt lat="43.53514" lon="6.10417">
        <ele>583</ele>
        <time>2025-10-15T13:01:26.000Z</time>
      </trkpt>
      <trkpt lat="43.53527" lon="6.10426">
        <ele>590</ele>
        <time>2025-10-15T13:02:05.000Z</time>
      </trkpt>
      <trkpt lat="43.5354" lon="6.10437">
        <ele>597</ele>
        <time>2025-10-15T13:03:17.000Z</time>
      </trkpt>
      <trkpt lat="43.53553" lon="6.10445">
        <ele>604</ele>
        <time>2025-10-15T13:04:32.000Z</time>
      </trkpt>
      <trkpt lat="43.53563" lon="6.10456">
        <ele>609</ele>
        <time>2025-10-15T13:05:44.000Z</time>
      </trkpt>
      <trkpt lat="43.53568" lon="6.10473">
        <ele>615</ele>
        <time>2025-10-15T13:07:02.000Z</time>
      </trkpt>
      <trkpt lat="43.53579" lon="6.10482">
        <ele>620</ele>
        <time>2025-10-15T13:07:50.000Z</time>
      </trkpt>
      <trkpt lat="43.53592" lon="6.10486">
        <ele>625</ele>
        <time>2025-10-15T13:08:26.000Z</time>
      </trkpt>
      <trkpt lat="43.53605" lon="6.10483">
        <ele>629</ele>
        <time>2025-10-15T13:08:56.000Z</time>
      </trkpt>
      <trkpt lat="43.53618" lon="6.1049">
        <ele>632</ele>
        <time>2025-10-15T13:09:32.000Z</time>
      </trkpt>
      <trkpt lat="43.5363" lon="6.10504">
        <ele>635</ele>
        <time>2025-10-15T13:09:53.000Z</time>
      </trkpt>
      <trkpt lat="43.5364" lon="6.10514">
        <ele>637</ele>
        <time>2025-10-15T13:10:08.000Z</time>
      </trkpt>
      <trkpt lat="43.53652" lon="6.10507">
        <ele>639</ele>
        <time>2025-10-15T13:16:20.000Z</time>
      </trkpt>
      <trkpt lat="43.53662" lon="6.10493">
        <ele>641</ele>
        <time>2025-10-15T13:16:35.000Z</time>
      </trkpt>
      <trkpt lat="43.53674" lon="6.10479">
        <ele>643</ele>
        <time>2025-10-15T13:16:53.000Z</time>
      </trkpt>
      <trkpt lat="43.53681" lon="6.10461">
        <ele>645</ele>
        <time>2025-10-15T13:17:08.000Z</time>
      </trkpt>
      <trkpt lat="43.53686" lon="6.10441">
        <ele>647</ele>
        <time>2025-10-15T13:17:26.000Z</time>
      </trkpt>
      <trkpt lat="43.53689" lon="6.1042">
        <ele>649</ele>
        <time>2025-10-15T13:17:44.000Z</time>
      </trkpt>
      <trkpt lat="43.5369" lon="6.10401">
        <ele>651</ele>
        <time>2025-10-15T13:18:08.000Z</time>
      </trkpt>
      <trkpt lat="43.53692" lon="6.10383">
        <ele>652</ele>
        <time>2025-10-15T13:18:23.000Z</time>
      </trkpt>
      <trkpt lat="43.53687" lon="6.10364">
        <ele>654</ele>
        <time>2025-10-15T13:18:38.000Z</time>
      </trkpt>
      <trkpt lat="43.53685" lon="6.10344">
        <ele>656</ele>
        <time>2025-10-15T13:18:56.000Z</time>
      </trkpt>
      <trkpt lat="43.53689" lon="6.10325">
        <ele>658</ele>
        <time>2025-10-15T13:19:11.000Z</time>
      </trkpt>
      <trkpt lat="43.53691" lon="6.10306">
        <ele>659</ele>
        <time>2025-10-15T13:19:26.000Z</time>
      </trkpt>
      <trkpt lat="43.53693" lon="6.10288">
        <ele>661</ele>
        <time>2025-10-15T13:19:41.000Z</time>
      </trkpt>
      <trkpt lat="43.5369" lon="6.10271">
        <ele>663</ele>
        <time>2025-10-15T13:19:56.000Z</time>
      </trkpt>
      <trkpt lat="43.53686" lon="6.10253">
        <ele>664</ele>
        <time>2025-10-15T13:20:11.000Z</time>
      </trkpt>
      <trkpt lat="43.53683" lon="6.10234">
        <ele>666</ele>
        <time>2025-10-15T13:20:26.000Z</time>
      </trkpt>
      <trkpt lat="43.53679" lon="6.10214">
        <ele>667</ele>
        <time>2025-10-15T13:20:41.000Z</time>
      </trkpt>
      <trkpt lat="43.53678" lon="6.10193">
        <ele>669</ele>
        <time>2025-10-15T13:20:56.000Z</time>
      </trkpt>
      <trkpt lat="43.53677" lon="6.10173">
        <ele>670</ele>
        <time>2025-10-15T13:22:11.000Z</time>
      </trkpt>
      <trkpt lat="43.53676" lon="6.10153">
        <ele>672</ele>
        <time>2025-10-15T13:22:29.000Z</time>
      </trkpt>
      <trkpt lat="43.53675" lon="6.10134">
        <ele>674</ele>
        <time>2025-10-15T13:22:44.000Z</time>
      </trkpt>
      <trkpt lat="43.53675" lon="6.10115">
        <ele>676</ele>
        <time>2025-10-15T13:22:59.000Z</time>
      </trkpt>
      <trkpt lat="43.53676" lon="6.10096">
        <ele>677</ele>
        <time>2025-10-15T13:23:14.000Z</time>
      </trkpt>
      <trkpt lat="43.53677" lon="6.10077">
        <ele>679</ele>
        <time>2025-10-15T13:23:29.000Z</time>
      </trkpt>
      <trkpt lat="43.53676" lon="6.10056">
        <ele>681</ele>
        <time>2025-10-15T13:23:44.000Z</time>
      </trkpt>
      <trkpt lat="43.53673" lon="6.10037">
        <ele>683</ele>
        <time>2025-10-15T13:24:02.000Z</time>
      </trkpt>
      <trkpt lat="43.53671" lon="6.10017">
        <ele>684</ele>
        <time>2025-10-15T13:24:17.000Z</time>
      </trkpt>
      <trkpt lat="43.53671" lon="6.09997">
        <ele>686</ele>
        <time>2025-10-15T13:24:32.000Z</time>
      </trkpt>
      <trkpt lat="43.53672" lon="6.09975">
        <ele>688</ele>
        <time>2025-10-15T13:24:50.000Z</time>
      </trkpt>
      <trkpt lat="43.53671" lon="6.09953">
        <ele>689</ele>
        <time>2025-10-15T13:25:05.000Z</time>
      </trkpt>
      <trkpt lat="43.53672" lon="6.09933">
        <ele>689</ele>
        <time>2025-10-15T13:25:20.000Z</time>
      </trkpt>
      <trkpt lat="43.53684" lon="6.09918">
        <ele>690</ele>
        <time>2025-10-15T13:25:41.000Z</time>
      </trkpt>
      <trkpt lat="43.53696" lon="6.09907">
        <ele>691</ele>
        <time>2025-10-15T13:25:56.000Z</time>
      </trkpt>
      <trkpt lat="43.53707" lon="6.09898">
        <ele>692</ele>
        <time>2025-10-15T13:26:14.000Z</time>
      </trkpt>
      <trkpt lat="43.53705" lon="6.0988">
        <ele>693</ele>
        <time>2025-10-15T13:26:59.000Z</time>
      </trkpt>
      <trkpt lat="43.53705" lon="6.09861">
        <ele>694</ele>
        <time>2025-10-15T13:27:23.000Z</time>
      </trkpt>
      <trkpt lat="43.53702" lon="6.09843">
        <ele>696</ele>
        <time>2025-10-15T13:28:35.000Z</time>
      </trkpt>
      <trkpt lat="43.537" lon="6.09824">
        <ele>697</ele>
        <time>2025-10-15T13:28:47.000Z</time>
      </trkpt>
      <trkpt lat="43.53699" lon="6.09805">
        <ele>699</ele>
        <time>2025-10-15T13:28:59.000Z</time>
      </trkpt>
      <trkpt lat="43.53699" lon="6.09783">
        <ele>700</ele>
        <time>2025-10-15T13:29:14.000Z</time>
      </trkpt>
      <trkpt lat="43.53699" lon="6.09761">
        <ele>702</ele>
        <time>2025-10-15T13:29:29.000Z</time>
      </trkpt>
      <trkpt lat="43.53701" lon="6.09739">
        <ele>704</ele>
        <time>2025-10-15T13:29:44.000Z</time>
      </trkpt>
      <trkpt lat="43.53699" lon="6.09718">
        <ele>705</ele>
        <time>2025-10-15T13:29:59.000Z</time>
      </trkpt>
      <trkpt lat="43.53696" lon="6.09697">
        <ele>707</ele>
        <time>2025-10-15T13:30:14.000Z</time>
      </trkpt>
      <trkpt lat="43.53694" lon="6.09677">
        <ele>708</ele>
        <time>2025-10-15T13:30:26.000Z</time>
      </trkpt>
      <trkpt lat="43.53696" lon="6.09656">
        <ele>710</ele>
        <time>2025-10-15T13:30:41.000Z</time>
      </trkpt>
      <trkpt lat="43.53697" lon="6.09637">
        <ele>711</ele>
        <time>2025-10-15T13:31:05.000Z</time>
      </trkpt>
      <trkpt lat="43.53696" lon="6.09618">
        <ele>712</ele>
        <time>2025-10-15T13:31:17.000Z</time>
      </trkpt>
      <trkpt lat="43.53694" lon="6.09599">
        <ele>713</ele>
        <time>2025-10-15T13:31:29.000Z</time>
      </trkpt>
      <trkpt lat="43.53691" lon="6.09579">
        <ele>713</ele>
        <time>2025-10-15T13:31:44.000Z</time>
      </trkpt>
      <trkpt lat="43.53687" lon="6.0956">
        <ele>714</ele>
        <time>2025-10-15T13:31:56.000Z</time>
      </trkpt>
      <trkpt lat="43.53682" lon="6.09543">
        <ele>715</ele>
        <time>2025-10-15T13:32:08.000Z</time>
      </trkpt>
      <trkpt lat="43.53676" lon="6.09526">
        <ele>716</ele>
        <time>2025-10-15T13:32:20.000Z</time>
      </trkpt>
      <trkpt lat="43.53669" lon="6.09508">
        <ele>718</ele>
        <time>2025-10-15T13:32:32.000Z</time>
      </trkpt>
      <trkpt lat="43.53667" lon="6.09488">
        <ele>719</ele>
        <time>2025-10-15T13:32:44.000Z</time>
      </trkpt>
      <trkpt lat="43.53668" lon="6.09467">
        <ele>720</ele>
        <time>2025-10-15T13:32:59.000Z</time>
      </trkpt>
      <trkpt lat="43.53672" lon="6.09446">
        <ele>721</ele>
        <time>2025-10-15T13:33:14.000Z</time>
      </trkpt>
      <trkpt lat="43.53676" lon="6.09425">
        <ele>722</ele>
        <time>2025-10-15T13:33:26.000Z</time>
      </trkpt>
      <trkpt lat="43.53679" lon="6.09406">
        <ele>723</ele>
        <time>2025-10-15T13:33:38.000Z</time>
      </trkpt>
      <trkpt lat="43.53679" lon="6.09387">
        <ele>723</ele>
        <time>2025-10-15T13:33:50.000Z</time>
      </trkpt>
      <trkpt lat="43.53675" lon="6.09368">
        <ele>724</ele>
        <time>2025-10-15T13:34:02.000Z</time>
      </trkpt>
      <trkpt lat="43.5367" lon="6.09348">
        <ele>724</ele>
        <time>2025-10-15T13:34:17.000Z</time>
      </trkpt>
      <trkpt lat="43.53664" lon="6.0933">
        <ele>725</ele>
        <time>2025-10-15T13:34:29.000Z</time>
      </trkpt>
      <trkpt lat="43.53655" lon="6.09314">
        <ele>725</ele>
        <time>2025-10-15T13:34:41.000Z</time>
      </trkpt>
      <trkpt lat="43.53645" lon="6.093">
        <ele>726</ele>
        <time>2025-10-15T13:34:53.000Z</time>
      </trkpt>
      <trkpt lat="43.53634" lon="6.09289">
        <ele>727</ele>
        <time>2025-10-15T13:35:05.000Z</time>
      </trkpt>
      <trkpt lat="43.53621" lon="6.09279">
        <ele>728</ele>
        <time>2025-10-15T13:35:17.000Z</time>
      </trkpt>
      <trkpt lat="43.53608" lon="6.09268">
        <ele>729</ele>
        <time>2025-10-15T13:35:29.000Z</time>
      </trkpt>
      <trkpt lat="43.53597" lon="6.09257">
        <ele>730</ele>
        <time>2025-10-15T13:35:41.000Z</time>
      </trkpt>
      <trkpt lat="43.53588" lon="6.09242">
        <ele>733</ele>
        <time>2025-10-15T13:35:53.000Z</time>
      </trkpt>
      <trkpt lat="43.53583" lon="6.09223">
        <ele>736</ele>
        <time>2025-10-15T13:36:06.000Z</time>
      </trkpt>
      <trkpt lat="43.53578" lon="6.09207">
        <ele>738</ele>
        <time>2025-10-15T13:36:18.000Z</time>
      </trkpt>
      <trkpt lat="43.53566" lon="6.09207">
        <ele>740</ele>
        <time>2025-10-15T13:37:05.000Z</time>
      </trkpt>
      <trkpt lat="43.53556" lon="6.09215">
        <ele>740</ele>
        <time>2025-10-15T13:37:41.000Z</time>
      </trkpt>
      <trkpt lat="43.53551" lon="6.09204">
        <ele>739</ele>
        <time>2025-10-15T13:43:23.000Z</time>
      </trkpt>
      <trkpt lat="43.53559" lon="6.09193">
        <ele>738</ele>
        <time>2025-10-15T13:46:24.000Z</time>
      </trkpt>
      <trkpt lat="43.53567" lon="6.09179">
        <ele>738</ele>
        <time>2025-10-15T13:46:54.000Z</time>
      </trkpt>
      <trkpt lat="43.53569" lon="6.0916">
        <ele>738</ele>
        <time>2025-10-15T13:47:18.000Z</time>
      </trkpt>
      <trkpt lat="43.53566" lon="6.09142">
        <ele>738</ele>
        <time>2025-10-15T13:51:33.000Z</time>
      </trkpt>
      <trkpt lat="43.53571" lon="6.09125">
        <ele>739</ele>
        <time>2025-10-15T13:51:45.000Z</time>
      </trkpt>
      <trkpt lat="43.53574" lon="6.09108">
        <ele>739</ele>
        <time>2025-10-15T13:51:57.000Z</time>
      </trkpt>
      <trkpt lat="43.53565" lon="6.09094">
        <ele>740</ele>
        <time>2025-10-15T13:52:09.000Z</time>
      </trkpt>
      <trkpt lat="43.53553" lon="6.09085">
        <ele>741</ele>
        <time>2025-10-15T13:52:21.000Z</time>
      </trkpt>
      <trkpt lat="43.53541" lon="6.09072">
        <ele>742</ele>
        <time>2025-10-15T13:52:42.000Z</time>
      </trkpt>
      <trkpt lat="43.53533" lon="6.09055">
        <ele>744</ele>
        <time>2025-10-15T13:52:54.000Z</time>
      </trkpt>
      <trkpt lat="43.5353" lon="6.09038">
        <ele>745</ele>
        <time>2025-10-15T13:53:06.000Z</time>
      </trkpt>
      <trkpt lat="43.53525" lon="6.0902">
        <ele>746</ele>
        <time>2025-10-15T13:53:18.000Z</time>
      </trkpt>
      <trkpt lat="43.53523" lon="6.09002">
        <ele>748</ele>
        <time>2025-10-15T13:53:30.000Z</time>
      </trkpt>
      <trkpt lat="43.53524" lon="6.08983">
        <ele>749</ele>
        <time>2025-10-15T13:53:42.000Z</time>
      </trkpt>
      <trkpt lat="43.53524" lon="6.08964">
        <ele>751</ele>
        <time>2025-10-15T13:53:54.000Z</time>
      </trkpt>
      <trkpt lat="43.53525" lon="6.08946">
        <ele>752</ele>
        <time>2025-10-15T13:54:06.000Z</time>
      </trkpt>
      <trkpt lat="43.5353" lon="6.08927">
        <ele>754</ele>
        <time>2025-10-15T13:54:18.000Z</time>
      </trkpt>
      <trkpt lat="43.53533" lon="6.08908">
        <ele>756</ele>
        <time>2025-10-15T13:54:33.000Z</time>
      </trkpt>
      <trkpt lat="43.53536" lon="6.08889">
        <ele>759</ele>
        <time>2025-10-15T13:54:48.000Z</time>
      </trkpt>
      <trkpt lat="43.53536" lon="6.0887">
        <ele>761</ele>
        <time>2025-10-15T13:56:06.000Z</time>
      </trkpt>
      <trkpt lat="43.5353" lon="6.08852">
        <ele>764</ele>
        <time>2025-10-15T13:56:45.000Z</time>
      </trkpt>
      <trkpt lat="43.53533" lon="6.08832">
        <ele>767</ele>
        <time>2025-10-15T13:57:06.000Z</time>
      </trkpt>
      <trkpt lat="43.53534" lon="6.08812">
        <ele>769</ele>
        <time>2025-10-15T13:57:30.000Z</time>
      </trkpt>
      <trkpt lat="43.53536" lon="6.08792">
        <ele>770</ele>
        <time>2025-10-15T13:57:48.000Z</time>
      </trkpt>
      <trkpt lat="43.53538" lon="6.08772">
        <ele>771</ele>
        <time>2025-10-15T13:59:39.000Z</time>
      </trkpt>
      <trkpt lat="43.53534" lon="6.08756">
        <ele>771</ele>
        <time>2025-10-15T14:00:03.000Z</time>
      </trkpt>
      <trkpt lat="43.53543" lon="6.08745">
        <ele>773</ele>
        <time>2025-10-15T14:02:04.000Z</time>
      </trkpt>
      <trkpt lat="43.53557" lon="6.08738">
        <ele>774</ele>
        <time>2025-10-15T14:02:19.000Z</time>
      </trkpt>
      <trkpt lat="43.53569" lon="6.08728">
        <ele>776</ele>
        <time>2025-10-15T14:02:31.000Z</time>
      </trkpt>
      <trkpt lat="43.53581" lon="6.08716">
        <ele>778</ele>
        <time>2025-10-15T14:02:46.000Z</time>
      </trkpt>
      <trkpt lat="43.53586" lon="6.08699">
        <ele>780</ele>
        <time>2025-10-15T14:02:58.000Z</time>
      </trkpt>
      <trkpt lat="43.53581" lon="6.08678">
        <ele>782</ele>
        <time>2025-10-15T14:03:13.000Z</time>
      </trkpt>
      <trkpt lat="43.53577" lon="6.0866">
        <ele>784</ele>
        <time>2025-10-15T14:03:25.000Z</time>
      </trkpt>
      <trkpt lat="43.53571" lon="6.08642">
        <ele>785</ele>
        <time>2025-10-15T14:03:37.000Z</time>
      </trkpt>
      <trkpt lat="43.53567" lon="6.08623">
        <ele>786</ele>
        <time>2025-10-15T14:03:49.000Z</time>
      </trkpt>
      <trkpt lat="43.53564" lon="6.08605">
        <ele>787</ele>
        <time>2025-10-15T14:04:01.000Z</time>
      </trkpt>
      <trkpt lat="43.53562" lon="6.08586">
        <ele>788</ele>
        <time>2025-10-15T14:04:13.000Z</time>
      </trkpt>
      <trkpt lat="43.53559" lon="6.08566">
        <ele>788</ele>
        <time>2025-10-15T14:04:25.000Z</time>
      </trkpt>
      <trkpt lat="43.53557" lon="6.08545">
        <ele>789</ele>
        <time>2025-10-15T14:04:37.000Z</time>
      </trkpt>
      <trkpt lat="43.53557" lon="6.08524">
        <ele>789</ele>
        <time>2025-10-15T14:04:52.000Z</time>
      </trkpt>
      <trkpt lat="43.5356" lon="6.08504">
        <ele>791</ele>
        <time>2025-10-15T14:05:04.000Z</time>
      </trkpt>
      <trkpt lat="43.53563" lon="6.08486">
        <ele>794</ele>
        <time>2025-10-15T14:05:22.000Z</time>
      </trkpt>
      <trkpt lat="43.53569" lon="6.08469">
        <ele>798</ele>
        <time>2025-10-15T14:06:10.000Z</time>
      </trkpt>
      <trkpt lat="43.53571" lon="6.08451">
        <ele>802</ele>
        <time>2025-10-15T14:06:37.000Z</time>
      </trkpt>
      <trkpt lat="43.5357" lon="6.08431">
        <ele>806</ele>
        <time>2025-10-15T14:07:22.000Z</time>
      </trkpt>
      <trkpt lat="43.53567" lon="6.08413">
        <ele>810</ele>
        <time>2025-10-15T14:07:52.000Z</time>
      </trkpt>
      <trkpt lat="43.53561" lon="6.08395">
        <ele>813</ele>
        <time>2025-10-15T14:08:25.000Z</time>
      </trkpt>
      <trkpt lat="43.53554" lon="6.08379">
        <ele>815</ele>
        <time>2025-10-15T14:08:49.000Z</time>
      </trkpt>
      <trkpt lat="43.53551" lon="6.08361">
        <ele>817</ele>
        <time>2025-10-15T14:09:07.000Z</time>
      </trkpt>
      <trkpt lat="43.53552" lon="6.08341">
        <ele>819</ele>
        <time>2025-10-15T14:09:25.000Z</time>
      </trkpt>
      <trkpt lat="43.53552" lon="6.08321">
        <ele>821</ele>
        <time>2025-10-15T14:09:40.000Z</time>
      </trkpt>
      <trkpt lat="43.5355" lon="6.08303">
        <ele>822</ele>
        <time>2025-10-15T14:09:55.000Z</time>
      </trkpt>
      <trkpt lat="43.5355" lon="6.08284">
        <ele>824</ele>
        <time>2025-10-15T14:10:07.000Z</time>
      </trkpt>
      <trkpt lat="43.5355" lon="6.08264">
        <ele>825</ele>
        <time>2025-10-15T14:10:22.000Z</time>
      </trkpt>
      <trkpt lat="43.53552" lon="6.08245">
        <ele>826</ele>
        <time>2025-10-15T14:11:31.000Z</time>
      </trkpt>
      <trkpt lat="43.53557" lon="6.08228">
        <ele>828</ele>
        <time>2025-10-15T14:11:49.000Z</time>
      </trkpt>
      <trkpt lat="43.53563" lon="6.0821">
        <ele>829</ele>
        <time>2025-10-15T14:12:16.000Z</time>
      </trkpt>
      <trkpt lat="43.53571" lon="6.08193">
        <ele>831</ele>
        <time>2025-10-15T14:12:46.000Z</time>
      </trkpt>
      <trkpt lat="43.5358" lon="6.08177">
        <ele>832</ele>
        <time>2025-10-15T14:13:07.000Z</time>
      </trkpt>
      <trkpt lat="43.53589" lon="6.08163">
        <ele>834</ele>
        <time>2025-10-15T14:13:25.000Z</time>
      </trkpt>
      <trkpt lat="43.53598" lon="6.0815">
        <ele>835</ele>
        <time>2025-10-15T14:13:43.000Z</time>
      </trkpt>
      <trkpt lat="43.53608" lon="6.08138">
        <ele>837</ele>
        <time>2025-10-15T14:13:58.000Z</time>
      </trkpt>
      <trkpt lat="43.53611" lon="6.08119">
        <ele>839</ele>
        <time>2025-10-15T14:14:19.000Z</time>
      </trkpt>
      <trkpt lat="43.53615" lon="6.08101">
        <ele>840</ele>
        <time>2025-10-15T14:14:37.000Z</time>
      </trkpt>
      <trkpt lat="43.5362" lon="6.08083">
        <ele>840</ele>
        <time>2025-10-15T14:14:55.000Z</time>
      </trkpt>
      <trkpt lat="43.53628" lon="6.08069">
        <ele>841</ele>
        <time>2025-10-15T14:24:55.000Z</time>
      </trkpt>
      <trkpt lat="43.5364" lon="6.08059">
        <ele>842</ele>
        <time>2025-10-15T14:25:16.000Z</time>
      </trkpt>
      <trkpt lat="43.53649" lon="6.08044">
        <ele>842</ele>
        <time>2025-10-15T14:25:37.000Z</time>
      </trkpt>
      <trkpt lat="43.53658" lon="6.0803">
        <ele>843</ele>
        <time>2025-10-15T14:25:55.000Z</time>
      </trkpt>
      <trkpt lat="43.53665" lon="6.08015">
        <ele>844</ele>
        <time>2025-10-15T14:26:25.000Z</time>
      </trkpt>
      <trkpt lat="43.53674" lon="6.07999">
        <ele>845</ele>
        <time>2025-10-15T14:26:43.000Z</time>
      </trkpt>
      <trkpt lat="43.53679" lon="6.07981">
        <ele>846</ele>
        <time>2025-10-15T14:27:04.000Z</time>
      </trkpt>
      <trkpt lat="43.53686" lon="6.07964">
        <ele>846</ele>
        <time>2025-10-15T14:27:25.000Z</time>
      </trkpt>
      <trkpt lat="43.53692" lon="6.07946">
        <ele>847</ele>
        <time>2025-10-15T14:27:49.000Z</time>
      </trkpt>
      <trkpt lat="43.53695" lon="6.07927">
        <ele>848</ele>
        <time>2025-10-15T14:28:23.000Z</time>
      </trkpt>
      <trkpt lat="43.537" lon="6.07909">
        <ele>848</ele>
        <time>2025-10-15T14:28:35.000Z</time>
      </trkpt>
      <trkpt lat="43.53702" lon="6.0789">
        <ele>849</ele>
        <time>2025-10-15T14:28:47.000Z</time>
      </trkpt>
      <trkpt lat="43.53702" lon="6.07869">
        <ele>850</ele>
        <time>2025-10-15T14:28:59.000Z</time>
      </trkpt>
      <trkpt lat="43.53704" lon="6.07851">
        <ele>851</ele>
        <time>2025-10-15T14:29:11.000Z</time>
      </trkpt>
      <trkpt lat="43.53709" lon="6.07834">
        <ele>852</ele>
        <time>2025-10-15T14:29:26.000Z</time>
      </trkpt>
      <trkpt lat="43.53714" lon="6.07814">
        <ele>853</ele>
        <time>2025-10-15T14:29:41.000Z</time>
      </trkpt>
      <trkpt lat="43.53719" lon="6.07794">
        <ele>854</ele>
        <time>2025-10-15T14:29:59.000Z</time>
      </trkpt>
      <trkpt lat="43.5372" lon="6.0778">
        <ele>854</ele>
        <time>2025-10-15T14:30:26.000Z</time>
      </trkpt>
      <trkpt lat="43.53717" lon="6.07795">
        <ele>854</ele>
        <time>2025-10-15T14:38:41.000Z</time>
      </trkpt>
      <trkpt lat="43.53713" lon="6.07814">
        <ele>854</ele>
        <time>2025-10-15T14:38:53.000Z</time>
      </trkpt>
      <trkpt lat="43.5371" lon="6.07833">
        <ele>854</ele>
        <time>2025-10-15T14:39:06.000Z</time>
      </trkpt>
      <trkpt lat="43.53705" lon="6.07852">
        <ele>853</ele>
        <time>2025-10-15T14:39:18.000Z</time>
      </trkpt>
      <trkpt lat="43.53704" lon="6.07871">
        <ele>853</ele>
        <time>2025-10-15T14:39:30.000Z</time>
      </trkpt>
      <trkpt lat="43.53703" lon="6.07891">
        <ele>852</ele>
        <time>2025-10-15T14:39:42.000Z</time>
      </trkpt>
      <trkpt lat="43.53702" lon="6.0791">
        <ele>852</ele>
        <time>2025-10-15T14:39:54.000Z</time>
      </trkpt>
      <trkpt lat="43.53697" lon="6.07929">
        <ele>851</ele>
        <time>2025-10-15T14:40:09.000Z</time>
      </trkpt>
      <trkpt lat="43.53693" lon="6.07947">
        <ele>850</ele>
        <time>2025-10-15T14:40:33.000Z</time>
      </trkpt>
      <trkpt lat="43.53688" lon="6.07965">
        <ele>849</ele>
        <time>2025-10-15T14:40:48.000Z</time>
      </trkpt>
      <trkpt lat="43.53682" lon="6.07982">
        <ele>848</ele>
        <time>2025-10-15T14:41:09.000Z</time>
      </trkpt>
      <trkpt lat="43.53676" lon="6.07999">
        <ele>848</ele>
        <time>2025-10-15T14:41:27.000Z</time>
      </trkpt>
      <trkpt lat="43.53667" lon="6.08015">
        <ele>848</ele>
        <time>2025-10-15T14:41:48.000Z</time>
      </trkpt>
      <trkpt lat="43.53659" lon="6.08033">
        <ele>848</ele>
        <time>2025-10-15T14:42:06.000Z</time>
      </trkpt>
      <trkpt lat="43.5365" lon="6.08047">
        <ele>848</ele>
        <time>2025-10-15T14:43:18.000Z</time>
      </trkpt>
      <trkpt lat="43.53641" lon="6.08062">
        <ele>848</ele>
        <time>2025-10-15T14:44:36.000Z</time>
      </trkpt>
      <trkpt lat="43.53631" lon="6.08075">
        <ele>847</ele>
        <time>2025-10-15T14:44:51.000Z</time>
      </trkpt>
      <trkpt lat="43.53624" lon="6.0809">
        <ele>846</ele>
        <time>2025-10-15T14:45:15.000Z</time>
      </trkpt>
      <trkpt lat="43.53618" lon="6.08107">
        <ele>844</ele>
        <time>2025-10-15T14:45:39.000Z</time>
      </trkpt>
      <trkpt lat="43.53613" lon="6.08126">
        <ele>843</ele>
        <time>2025-10-15T14:46:03.000Z</time>
      </trkpt>
      <trkpt lat="43.53608" lon="6.08144">
        <ele>841</ele>
        <time>2025-10-15T14:46:27.000Z</time>
      </trkpt>
      <trkpt lat="43.53598" lon="6.08155">
        <ele>840</ele>
        <time>2025-10-15T14:46:42.000Z</time>
      </trkpt>
      <trkpt lat="43.53589" lon="6.0817">
        <ele>838</ele>
        <time>2025-10-15T14:47:03.000Z</time>
      </trkpt>
      <trkpt lat="43.53579" lon="6.08184">
        <ele>836</ele>
        <time>2025-10-15T14:47:21.000Z</time>
      </trkpt>
      <trkpt lat="43.53571" lon="6.08201">
        <ele>835</ele>
        <time>2025-10-15T14:47:42.000Z</time>
      </trkpt>
      <trkpt lat="43.53563" lon="6.08216">
        <ele>833</ele>
        <time>2025-10-15T14:47:57.000Z</time>
      </trkpt>
      <trkpt lat="43.53558" lon="6.08233">
        <ele>832</ele>
        <time>2025-10-15T14:48:15.000Z</time>
      </trkpt>
      <trkpt lat="43.53555" lon="6.08253">
        <ele>831</ele>
        <time>2025-10-15T14:48:36.000Z</time>
      </trkpt>
      <trkpt lat="43.53552" lon="6.08271">
        <ele>830</ele>
        <time>2025-10-15T14:48:48.000Z</time>
      </trkpt>
      <trkpt lat="43.53552" lon="6.08289">
        <ele>828</ele>
        <time>2025-10-15T14:49:06.000Z</time>
      </trkpt>
      <trkpt lat="43.53553" lon="6.08308">
        <ele>827</ele>
        <time>2025-10-15T14:49:21.000Z</time>
      </trkpt>
      <trkpt lat="43.53555" lon="6.08328">
        <ele>825</ele>
        <time>2025-10-15T14:49:39.000Z</time>
      </trkpt>
      <trkpt lat="43.53552" lon="6.08348">
        <ele>822</ele>
        <time>2025-10-15T14:49:57.000Z</time>
      </trkpt>
      <trkpt lat="43.53553" lon="6.08367">
        <ele>819</ele>
        <time>2025-10-15T14:50:15.000Z</time>
      </trkpt>
      <trkpt lat="43.53558" lon="6.08384">
        <ele>815</ele>
        <time>2025-10-15T14:50:39.000Z</time>
      </trkpt>
      <trkpt lat="43.53566" lon="6.084">
        <ele>810</ele>
        <time>2025-10-15T14:51:18.000Z</time>
      </trkpt>
      <trkpt lat="43.5357" lon="6.08418">
        <ele>805</ele>
        <time>2025-10-15T14:52:00.000Z</time>
      </trkpt>
      <trkpt lat="43.53572" lon="6.08437">
        <ele>801</ele>
        <time>2025-10-15T14:53:00.000Z</time>
      </trkpt>
      <trkpt lat="43.53572" lon="6.08457">
        <ele>798</ele>
        <time>2025-10-15T14:54:15.000Z</time>
      </trkpt>
      <trkpt lat="43.53569" lon="6.08475">
        <ele>796</ele>
        <time>2025-10-15T14:55:00.000Z</time>
      </trkpt>
      <trkpt lat="43.53564" lon="6.08492">
        <ele>794</ele>
        <time>2025-10-15T14:56:36.000Z</time>
      </trkpt>
      <trkpt lat="43.53558" lon="6.08509">
        <ele>792</ele>
        <time>2025-10-15T14:56:51.000Z</time>
      </trkpt>
      <trkpt lat="43.53555" lon="6.08529">
        <ele>791</ele>
        <time>2025-10-15T14:57:24.000Z</time>
      </trkpt>
      <trkpt lat="43.53556" lon="6.0855">
        <ele>790</ele>
        <time>2025-10-15T14:57:39.000Z</time>
      </trkpt>
      <trkpt lat="43.53558" lon="6.08571">
        <ele>789</ele>
        <time>2025-10-15T14:57:51.000Z</time>
      </trkpt>
      <trkpt lat="43.53561" lon="6.0859">
        <ele>788</ele>
        <time>2025-10-15T14:58:03.000Z</time>
      </trkpt>
      <trkpt lat="43.53564" lon="6.0861">
        <ele>787</ele>
        <time>2025-10-15T14:58:15.000Z</time>
      </trkpt>
      <trkpt lat="43.53568" lon="6.0863">
        <ele>786</ele>
        <time>2025-10-15T14:58:27.000Z</time>
      </trkpt>
      <trkpt lat="43.53574" lon="6.0865">
        <ele>785</ele>
        <time>2025-10-15T14:58:39.000Z</time>
      </trkpt>
      <trkpt lat="43.53578" lon="6.0867">
        <ele>784</ele>
        <time>2025-10-15T14:58:51.000Z</time>
      </trkpt>
      <trkpt lat="43.53583" lon="6.08689">
        <ele>784</ele>
        <time>2025-10-15T14:59:03.000Z</time>
      </trkpt>
      <trkpt lat="43.53585" lon="6.08709">
        <ele>783</ele>
        <time>2025-10-15T14:59:15.000Z</time>
      </trkpt>
      <trkpt lat="43.53576" lon="6.08726">
        <ele>782</ele>
        <time>2025-10-15T14:59:30.000Z</time>
      </trkpt>
      <trkpt lat="43.53564" lon="6.08736">
        <ele>781</ele>
        <time>2025-10-15T14:59:42.000Z</time>
      </trkpt>
      <trkpt lat="43.53551" lon="6.08745">
        <ele>779</ele>
        <time>2025-10-15T14:59:54.000Z</time>
      </trkpt>
      <trkpt lat="43.53541" lon="6.08754">
        <ele>778</ele>
        <time>2025-10-15T15:00:06.000Z</time>
      </trkpt>
      <trkpt lat="43.5355" lon="6.08764">
        <ele>776</ele>
        <time>2025-10-15T15:00:21.000Z</time>
      </trkpt>
      <trkpt lat="43.53565" lon="6.08766">
        <ele>774</ele>
        <time>2025-10-15T15:00:36.000Z</time>
      </trkpt>
      <trkpt lat="43.53581" lon="6.08769">
        <ele>773</ele>
        <time>2025-10-15T15:00:51.000Z</time>
      </trkpt>
      <trkpt lat="43.53597" lon="6.08772">
        <ele>771</ele>
        <time>2025-10-15T15:01:06.000Z</time>
      </trkpt>
      <trkpt lat="43.53609" lon="6.08776">
        <ele>769</ele>
        <time>2025-10-15T15:01:18.000Z</time>
      </trkpt>
      <trkpt lat="43.53603" lon="6.08787">
        <ele>768</ele>
        <time>2025-10-15T15:01:33.000Z</time>
      </trkpt>
      <trkpt lat="43.53589" lon="6.08796">
        <ele>766</ele>
        <time>2025-10-15T15:01:48.000Z</time>
      </trkpt>
      <trkpt lat="43.53577" lon="6.0881">
        <ele>764</ele>
        <time>2025-10-15T15:02:00.000Z</time>
      </trkpt>
      <trkpt lat="43.5357" lon="6.08827">
        <ele>762</ele>
        <time>2025-10-15T15:02:12.000Z</time>
      </trkpt>
      <trkpt lat="43.53562" lon="6.08844">
        <ele>759</ele>
        <time>2025-10-15T15:02:24.000Z</time>
      </trkpt>
      <trkpt lat="43.53553" lon="6.08861">
        <ele>757</ele>
        <time>2025-10-15T15:02:36.000Z</time>
      </trkpt>
      <trkpt lat="43.53544" lon="6.08878">
        <ele>755</ele>
        <time>2025-10-15T15:02:48.000Z</time>
      </trkpt>
      <trkpt lat="43.53536" lon="6.08896">
        <ele>754</ele>
        <time>2025-10-15T15:03:00.000Z</time>
      </trkpt>
      <trkpt lat="43.53531" lon="6.08914">
        <ele>753</ele>
        <time>2025-10-15T15:03:12.000Z</time>
      </trkpt>
      <trkpt lat="43.53527" lon="6.08933">
        <ele>751</ele>
        <time>2025-10-15T15:03:24.000Z</time>
      </trkpt>
      <trkpt lat="43.53523" lon="6.08952">
        <ele>749</ele>
        <time>2025-10-15T15:03:36.000Z</time>
      </trkpt>
      <trkpt lat="43.53523" lon="6.08972">
        <ele>748</ele>
        <time>2025-10-15T15:03:48.000Z</time>
      </trkpt>
      <trkpt lat="43.53522" lon="6.08993">
        <ele>746</ele>
        <time>2025-10-15T15:04:00.000Z</time>
      </trkpt>
      <trkpt lat="43.53523" lon="6.09012">
        <ele>745</ele>
        <time>2025-10-15T15:04:12.000Z</time>
      </trkpt>
      <trkpt lat="43.53528" lon="6.09029">
        <ele>744</ele>
        <time>2025-10-15T15:04:24.000Z</time>
      </trkpt>
      <trkpt lat="43.53533" lon="6.09047">
        <ele>742</ele>
        <time>2025-10-15T15:04:36.000Z</time>
      </trkpt>
      <trkpt lat="43.53538" lon="6.09064">
        <ele>741</ele>
        <time>2025-10-15T15:04:48.000Z</time>
      </trkpt>
      <trkpt lat="43.53548" lon="6.09079">
        <ele>740</ele>
        <time>2025-10-15T15:05:00.000Z</time>
      </trkpt>
      <trkpt lat="43.53559" lon="6.0909">
        <ele>738</ele>
        <time>2025-10-15T15:05:12.000Z</time>
      </trkpt>
      <trkpt lat="43.5357" lon="6.09101">
        <ele>737</ele>
        <time>2025-10-15T15:05:24.000Z</time>
      </trkpt>
      <trkpt lat="43.53571" lon="6.09121">
        <ele>735</ele>
        <time>2025-10-15T15:05:39.000Z</time>
      </trkpt>
      <trkpt lat="43.53567" lon="6.09141">
        <ele>734</ele>
        <time>2025-10-15T15:05:51.000Z</time>
      </trkpt>
      <trkpt lat="43.53569" lon="6.09159">
        <ele>733</ele>
        <time>2025-10-15T15:06:03.000Z</time>
      </trkpt>
      <trkpt lat="43.53574" lon="6.09177">
        <ele>732</ele>
        <time>2025-10-15T15:06:15.000Z</time>
      </trkpt>
      <trkpt lat="43.53579" lon="6.09197">
        <ele>732</ele>
        <time>2025-10-15T15:06:27.000Z</time>
      </trkpt>
      <trkpt lat="43.53583" lon="6.09218">
        <ele>731</ele>
        <time>2025-10-15T15:06:39.000Z</time>
      </trkpt>
      <trkpt lat="43.5359" lon="6.09235">
        <ele>731</ele>
        <time>2025-10-15T15:06:51.000Z</time>
      </trkpt>
      <trkpt lat="43.53597" lon="6.09255">
        <ele>732</ele>
        <time>2025-10-15T15:07:04.000Z</time>
      </trkpt>
      <trkpt lat="43.53604" lon="6.09265">
        <ele>732</ele>
        <time>2025-10-15T15:07:16.000Z</time>
      </trkpt>
      <trkpt lat="43.53598" lon="6.09253">
        <ele>733</ele>
        <time>2025-10-15T15:07:37.000Z</time>
      </trkpt>
      <trkpt lat="43.53591" lon="6.09236">
        <ele>733</ele>
        <time>2025-10-15T15:07:49.000Z</time>
      </trkpt>
      <trkpt lat="43.53586" lon="6.09218">
        <ele>733</ele>
        <time>2025-10-15T15:08:01.000Z</time>
      </trkpt>
      <trkpt lat="43.53582" lon="6.092">
        <ele>733</ele>
        <time>2025-10-15T15:08:13.000Z</time>
      </trkpt>
      <trkpt lat="43.53577" lon="6.09181">
        <ele>733</ele>
        <time>2025-10-15T15:08:25.000Z</time>
      </trkpt>
      <trkpt lat="43.53571" lon="6.09163">
        <ele>731</ele>
        <time>2025-10-15T15:08:37.000Z</time>
      </trkpt>
      <trkpt lat="43.53562" lon="6.09151">
        <ele>728</ele>
        <time>2025-10-15T15:09:25.000Z</time>
      </trkpt>
      <trkpt lat="43.5355" lon="6.09155">
        <ele>725</ele>
        <time>2025-10-15T15:10:13.000Z</time>
      </trkpt>
      <trkpt lat="43.53537" lon="6.09158">
        <ele>721</ele>
        <time>2025-10-15T15:11:49.000Z</time>
      </trkpt>
      <trkpt lat="43.53524" lon="6.09156">
        <ele>715</ele>
        <time>2025-10-15T15:12:34.000Z</time>
      </trkpt>
      <trkpt lat="43.5351" lon="6.09156">
        <ele>710</ele>
        <time>2025-10-15T15:13:25.000Z</time>
      </trkpt>
      <trkpt lat="43.53496" lon="6.09153">
        <ele>704</ele>
        <time>2025-10-15T15:14:04.000Z</time>
      </trkpt>
      <trkpt lat="43.53482" lon="6.09151">
        <ele>697</ele>
        <time>2025-10-15T15:15:07.000Z</time>
      </trkpt>
      <trkpt lat="43.53469" lon="6.0915">
        <ele>691</ele>
        <time>2025-10-15T15:16:16.000Z</time>
      </trkpt>
      <trkpt lat="43.53456" lon="6.09152">
        <ele>685</ele>
        <time>2025-10-15T15:18:16.000Z</time>
      </trkpt>
      <trkpt lat="43.53444" lon="6.09145">
        <ele>679</ele>
        <time>2025-10-15T15:19:49.000Z</time>
      </trkpt>
      <trkpt lat="43.53432" lon="6.0914">
        <ele>672</ele>
        <time>2025-10-15T15:21:19.000Z</time>
      </trkpt>
      <trkpt lat="43.53421" lon="6.0913">
        <ele>666</ele>
        <time>2025-10-15T15:22:22.000Z</time>
      </trkpt>
      <trkpt lat="43.53409" lon="6.09127">
        <ele>660</ele>
        <time>2025-10-15T15:23:13.000Z</time>
      </trkpt>
      <trkpt lat="43.53398" lon="6.09118">
        <ele>654</ele>
        <time>2025-10-15T15:23:55.000Z</time>
      </trkpt>
      <trkpt lat="43.53385" lon="6.09117">
        <ele>648</ele>
        <time>2025-10-15T15:24:40.000Z</time>
      </trkpt>
      <trkpt lat="43.53372" lon="6.09117">
        <ele>643</ele>
        <time>2025-10-15T15:25:22.000Z</time>
      </trkpt>
      <trkpt lat="43.53358" lon="6.09117">
        <ele>638</ele>
        <time>2025-10-15T15:26:10.000Z</time>
      </trkpt>
      <trkpt lat="43.53344" lon="6.09119">
        <ele>632</ele>
        <time>2025-10-15T15:26:34.000Z</time>
      </trkpt>
      <trkpt lat="43.53331" lon="6.09123">
        <ele>626</ele>
        <time>2025-10-15T15:27:19.000Z</time>
      </trkpt>
      <trkpt lat="43.53317" lon="6.0912">
        <ele>621</ele>
        <time>2025-10-15T15:28:07.000Z</time>
      </trkpt>
      <trkpt lat="43.53304" lon="6.09117">
        <ele>615</ele>
        <time>2025-10-15T15:28:52.000Z</time>
      </trkpt>
      <trkpt lat="43.53291" lon="6.09109">
        <ele>610</ele>
        <time>2025-10-15T15:29:40.000Z</time>
      </trkpt>
      <trkpt lat="43.53278" lon="6.09106">
        <ele>605</ele>
        <time>2025-10-15T15:30:13.000Z</time>
      </trkpt>
      <trkpt lat="43.53265" lon="6.09105">
        <ele>600</ele>
        <time>2025-10-15T15:30:52.000Z</time>
      </trkpt>
      <trkpt lat="43.53251" lon="6.09106">
        <ele>594</ele>
        <time>2025-10-15T15:31:22.000Z</time>
      </trkpt>
      <trkpt lat="43.53238" lon="6.09107">
        <ele>589</ele>
        <time>2025-10-15T15:31:55.000Z</time>
      </trkpt>
      <trkpt lat="43.53224" lon="6.09106">
        <ele>584</ele>
        <time>2025-10-15T15:32:43.000Z</time>
      </trkpt>
      <trkpt lat="43.5321" lon="6.09107">
        <ele>578</ele>
        <time>2025-10-15T15:33:25.000Z</time>
      </trkpt>
      <trkpt lat="43.53197" lon="6.09112">
        <ele>573</ele>
        <time>2025-10-15T15:33:58.000Z</time>
      </trkpt>
      <trkpt lat="43.53185" lon="6.0912">
        <ele>568</ele>
        <time>2025-10-15T15:34:25.000Z</time>
      </trkpt>
      <trkpt lat="43.53173" lon="6.09127">
        <ele>564</ele>
        <time>2025-10-15T15:34:52.000Z</time>
      </trkpt>
      <trkpt lat="43.53162" lon="6.09137">
        <ele>559</ele>
        <time>2025-10-15T15:35:16.000Z</time>
      </trkpt>
      <trkpt lat="43.5315" lon="6.0915">
        <ele>555</ele>
        <time>2025-10-15T15:35:37.000Z</time>
      </trkpt>
      <trkpt lat="43.53138" lon="6.0916">
        <ele>551</ele>
        <time>2025-10-15T15:35:58.000Z</time>
      </trkpt>
      <trkpt lat="43.53127" lon="6.09172">
        <ele>547</ele>
        <time>2025-10-15T15:36:13.000Z</time>
      </trkpt>
      <trkpt lat="43.53116" lon="6.09182">
        <ele>543</ele>
        <time>2025-10-15T15:36:34.000Z</time>
      </trkpt>
      <trkpt lat="43.53104" lon="6.09192">
        <ele>539</ele>
        <time>2025-10-15T15:36:58.000Z</time>
      </trkpt>
      <trkpt lat="43.53091" lon="6.09203">
        <ele>535</ele>
        <time>2025-10-15T15:37:13.000Z</time>
      </trkpt>
      <trkpt lat="43.53079" lon="6.09211">
        <ele>531</ele>
        <time>2025-10-15T15:37:31.000Z</time>
      </trkpt>
      <trkpt lat="43.53067" lon="6.09219">
        <ele>528</ele>
        <time>2025-10-15T15:37:49.000Z</time>
      </trkpt>
      <trkpt lat="43.53056" lon="6.09229">
        <ele>525</ele>
        <time>2025-10-15T15:38:04.000Z</time>
      </trkpt>
      <trkpt lat="43.53043" lon="6.09235">
        <ele>522</ele>
        <time>2025-10-15T15:38:22.000Z</time>
      </trkpt>
      <trkpt lat="43.5303" lon="6.09242">
        <ele>519</ele>
        <time>2025-10-15T15:38:36.000Z</time>
      </trkpt>
      <trkpt lat="43.53016" lon="6.09244">
        <ele>516</ele>
        <time>2025-10-15T15:38:51.000Z</time>
      </trkpt>
      <trkpt lat="43.53001" lon="6.09246">
        <ele>513</ele>
        <time>2025-10-15T15:39:06.000Z</time>
      </trkpt>
      <trkpt lat="43.52988" lon="6.09252">
        <ele>511</ele>
        <time>2025-10-15T15:39:18.000Z</time>
      </trkpt>
      <trkpt lat="43.52975" lon="6.09255">
        <ele>509</ele>
        <time>2025-10-15T15:39:36.000Z</time>
      </trkpt>
      <trkpt lat="43.52966" lon="6.09268">
        <ele>507</ele>
        <time>2025-10-15T15:43:23.000Z</time>
      </trkpt>
      <trkpt lat="43.5296" lon="6.09285">
        <ele>506</ele>
        <time>2025-10-15T15:43:35.000Z</time>
      </trkpt>
      <trkpt lat="43.52958" lon="6.09303">
        <ele>505</ele>
        <time>2025-10-15T15:43:47.000Z</time>
      </trkpt>
      <trkpt lat="43.52962" lon="6.09322">
        <ele>504</ele>
        <time>2025-10-15T15:43:59.000Z</time>
      </trkpt>
      <trkpt lat="43.52961" lon="6.09342">
        <ele>504</ele>
        <time>2025-10-15T15:44:11.000Z</time>
      </trkpt>
      <trkpt lat="43.52951" lon="6.09357">
        <ele>504</ele>
        <time>2025-10-15T15:44:23.000Z</time>
      </trkpt>
      <trkpt lat="43.52945" lon="6.09375">
        <ele>503</ele>
        <time>2025-10-15T15:44:35.000Z</time>
      </trkpt>
      <trkpt lat="43.52945" lon="6.09395">
        <ele>503</ele>
        <time>2025-10-15T15:44:47.000Z</time>
      </trkpt>
      <trkpt lat="43.52945" lon="6.09413">
        <ele>503</ele>
        <time>2025-10-15T15:44:59.000Z</time>
      </trkpt>
      <trkpt lat="43.52933" lon="6.09425">
        <ele>503</ele>
        <time>2025-10-15T15:45:11.000Z</time>
      </trkpt>
      <trkpt lat="43.52921" lon="6.09436">
        <ele>503</ele>
        <time>2025-10-15T15:45:23.000Z</time>
      </trkpt>
      <trkpt lat="43.52913" lon="6.09453">
        <ele>503</ele>
        <time>2025-10-15T15:45:35.000Z</time>
      </trkpt>
      <trkpt lat="43.52911" lon="6.09472">
        <ele>503</ele>
        <time>2025-10-15T15:45:47.000Z</time>
      </trkpt>
      <trkpt lat="43.52911" lon="6.09493">
        <ele>503</ele>
        <time>2025-10-15T15:45:59.000Z</time>
      </trkpt>
      <trkpt lat="43.52912" lon="6.09514">
        <ele>503</ele>
        <time>2025-10-15T15:46:11.000Z</time>
      </trkpt>
      <trkpt lat="43.52913" lon="6.09536">
        <ele>503</ele>
        <time>2025-10-15T15:46:23.000Z</time>
      </trkpt>
      <trkpt lat="43.52917" lon="6.09557">
        <ele>502</ele>
        <time>2025-10-15T15:46:35.000Z</time>
      </trkpt>
      <trkpt lat="43.52924" lon="6.09575">
        <ele>503</ele>
        <time>2025-10-15T15:46:47.000Z</time>
      </trkpt>
      <trkpt lat="43.52933" lon="6.09592">
        <ele>503</ele>
        <time>2025-10-15T15:46:59.000Z</time>
      </trkpt>
      <trkpt lat="43.52943" lon="6.09608">
        <ele>503</ele>
        <time>2025-10-15T15:47:11.000Z</time>
      </trkpt>
      <trkpt lat="43.52956" lon="6.09617">
        <ele>503</ele>
        <time>2025-10-15T15:47:23.000Z</time>
      </trkpt>
      <trkpt lat="43.5297" lon="6.09627">
        <ele>503</ele>
        <time>2025-10-15T15:47:35.000Z</time>
      </trkpt>
      <trkpt lat="43.52983" lon="6.09638">
        <ele>503</ele>
        <time>2025-10-15T15:47:47.000Z</time>
      </trkpt>
      <trkpt lat="43.52995" lon="6.09649">
        <ele>503</ele>
        <time>2025-10-15T15:47:59.000Z</time>
      </trkpt>
      <trkpt lat="43.53006" lon="6.09662">
        <ele>504</ele>
        <time>2025-10-15T15:48:11.000Z</time>
      </trkpt>
      <trkpt lat="43.53012" lon="6.09681">
        <ele>504</ele>
        <time>2025-10-15T15:48:23.000Z</time>
      </trkpt>
      <trkpt lat="43.53018" lon="6.09699">
        <ele>504</ele>
        <time>2025-10-15T15:48:35.000Z</time>
      </trkpt>
      <trkpt lat="43.53025" lon="6.09716">
        <ele>504</ele>
        <time>2025-10-15T15:48:47.000Z</time>
      </trkpt>
      <trkpt lat="43.53033" lon="6.09734">
        <ele>505</ele>
        <time>2025-10-15T15:48:59.000Z</time>
      </trkpt>
      <trkpt lat="43.53043" lon="6.09751">
        <ele>504</ele>
        <time>2025-10-15T15:49:11.000Z</time>
      </trkpt>
      <trkpt lat="43.53051" lon="6.09767">
        <ele>504</ele>
        <time>2025-10-15T15:49:23.000Z</time>
      </trkpt>
      <trkpt lat="43.53059" lon="6.09786">
        <ele>505</ele>
        <time>2025-10-15T15:49:35.000Z</time>
      </trkpt>
      <trkpt lat="43.53067" lon="6.09803">
        <ele>505</ele>
        <time>2025-10-15T15:49:47.000Z</time>
      </trkpt>
      <trkpt lat="43.53076" lon="6.09821">
        <ele>505</ele>
        <time>2025-10-15T15:49:59.000Z</time>
      </trkpt>
      <trkpt lat="43.53087" lon="6.09833">
        <ele>506</ele>
        <time>2025-10-15T15:50:11.000Z</time>
      </trkpt>
      <trkpt lat="43.53101" lon="6.0984">
        <ele>506</ele>
        <time>2025-10-15T15:50:23.000Z</time>
      </trkpt>
      <trkpt lat="43.53109" lon="6.09855">
        <ele>507</ele>
        <time>2025-10-15T15:50:35.000Z</time>
      </trkpt>
      <trkpt lat="43.53118" lon="6.0987">
        <ele>507</ele>
        <time>2025-10-15T15:50:47.000Z</time>
      </trkpt>
      <trkpt lat="43.53132" lon="6.09878">
        <ele>508</ele>
        <time>2025-10-15T15:50:59.000Z</time>
      </trkpt>
      <trkpt lat="43.53143" lon="6.09891">
        <ele>508</ele>
        <time>2025-10-15T15:51:14.000Z</time>
      </trkpt>
      <trkpt lat="43.53146" lon="6.09911">
        <ele>508</ele>
        <time>2025-10-15T15:51:26.000Z</time>
      </trkpt>
      <trkpt lat="43.5315" lon="6.09931">
        <ele>508</ele>
        <time>2025-10-15T15:51:38.000Z</time>
      </trkpt>
      <trkpt lat="43.53154" lon="6.09951">
        <ele>507</ele>
        <time>2025-10-15T15:51:50.000Z</time>
      </trkpt>
      <trkpt lat="43.5316" lon="6.09969">
        <ele>507</ele>
        <time>2025-10-15T15:52:02.000Z</time>
      </trkpt>
      <trkpt lat="43.53169" lon="6.09982">
        <ele>506</ele>
        <time>2025-10-15T15:52:14.000Z</time>
      </trkpt>
      <trkpt lat="43.5317" lon="6.10003">
        <ele>505</ele>
        <time>2025-10-15T15:52:29.000Z</time>
      </trkpt>
      <trkpt lat="43.53164" lon="6.10023">
        <ele>504</ele>
        <time>2025-10-15T15:52:41.000Z</time>
      </trkpt>
      <trkpt lat="43.53161" lon="6.10043">
        <ele>504</ele>
        <time>2025-10-15T15:52:53.000Z</time>
      </trkpt>
      <trkpt lat="43.53159" lon="6.10064">
        <ele>503</ele>
        <time>2025-10-15T15:53:05.000Z</time>
      </trkpt>
      <trkpt lat="43.5316" lon="6.10085">
        <ele>503</ele>
        <time>2025-10-15T15:53:17.000Z</time>
      </trkpt>
      <trkpt lat="43.53163" lon="6.10105">
        <ele>502</ele>
        <time>2025-10-15T15:53:29.000Z</time>
      </trkpt>
      <trkpt lat="43.53165" lon="6.10126">
        <ele>502</ele>
        <time>2025-10-15T15:53:41.000Z</time>
      </trkpt>
      <trkpt lat="43.53166" lon="6.10147">
        <ele>501</ele>
        <time>2025-10-15T15:53:53.000Z</time>
      </trkpt>
      <trkpt lat="43.5317" lon="6.10168">
        <ele>500</ele>
        <time>2025-10-15T15:54:05.000Z</time>
      </trkpt>
      <trkpt lat="43.53175" lon="6.10189">
        <ele>499</ele>
        <time>2025-10-15T15:54:17.000Z</time>
      </trkpt>
      <trkpt lat="43.53179" lon="6.10211">
        <ele>498</ele>
        <time>2025-10-15T15:54:32.000Z</time>
      </trkpt>
      <trkpt lat="43.53182" lon="6.10232">
        <ele>497</ele>
        <time>2025-10-15T15:54:44.000Z</time>
      </trkpt>
      <trkpt lat="43.53176" lon="6.1025">
        <ele>496</ele>
        <time>2025-10-15T15:54:56.000Z</time>
      </trkpt>
      <trkpt lat="43.53163" lon="6.10263">
        <ele>495</ele>
        <time>2025-10-15T15:55:11.000Z</time>
      </trkpt>
      <trkpt lat="43.53148" lon="6.10274">
        <ele>494</ele>
        <time>2025-10-15T15:55:23.000Z</time>
      </trkpt>
      <trkpt lat="43.53137" lon="6.10286">
        <ele>493</ele>
        <time>2025-10-15T15:55:35.000Z</time>
      </trkpt>
      <trkpt lat="43.53125" lon="6.103">
        <ele>493</ele>
        <time>2025-10-15T15:55:47.000Z</time>
      </trkpt>
      <trkpt lat="43.53114" lon="6.10314">
        <ele>492</ele>
        <time>2025-10-15T15:55:59.000Z</time>
      </trkpt>
      <trkpt lat="43.53104" lon="6.10331">
        <ele>492</ele>
        <time>2025-10-15T15:56:11.000Z</time>
      </trkpt>
      <trkpt lat="43.53097" lon="6.10348">
        <ele>492</ele>
        <time>2025-10-15T15:56:23.000Z</time>
      </trkpt>
      <trkpt lat="43.53092" lon="6.10371">
        <ele>492</ele>
        <time>2025-10-15T15:56:36.000Z</time>
      </trkpt>
      <trkpt lat="43.53089" lon="6.10393">
        <ele>492</ele>
        <time>2025-10-15T15:56:49.000Z</time>
      </trkpt>
      <trkpt lat="43.5309" lon="6.10415">
        <ele>492</ele>
        <time>2025-10-15T15:57:01.000Z</time>
      </trkpt>
      <trkpt lat="43.5309" lon="6.10435">
        <ele>493</ele>
        <time>2025-10-15T15:57:13.000Z</time>
      </trkpt>
      <trkpt lat="43.5309" lon="6.10455">
        <ele>493</ele>
        <time>2025-10-15T15:57:25.000Z</time>
      </trkpt>
      <trkpt lat="43.53089" lon="6.10476">
        <ele>493</ele>
        <time>2025-10-15T15:57:37.000Z</time>
      </trkpt>
      <trkpt lat="43.53088" lon="6.10497">
        <ele>493</ele>
        <time>2025-10-15T15:57:49.000Z</time>
      </trkpt>
      <trkpt lat="43.5309" lon="6.10517">
        <ele>493</ele>
        <time>2025-10-15T15:58:01.000Z</time>
      </trkpt>
      <trkpt lat="43.53099" lon="6.10531">
        <ele>493</ele>
        <time>2025-10-15T15:58:13.000Z</time>
      </trkpt>
      <trkpt lat="43.53113" lon="6.10534">
        <ele>494</ele>
        <time>2025-10-15T15:58:25.000Z</time>
      </trkpt>
      <trkpt lat="43.53128" lon="6.10532">
        <ele>494</ele>
        <time>2025-10-15T15:58:37.000Z</time>
      </trkpt>
      <trkpt lat="43.53143" lon="6.10532">
        <ele>495</ele>
        <time>2025-10-15T15:58:49.000Z</time>
      </trkpt>
      <trkpt lat="43.53158" lon="6.10534">
        <ele>496</ele>
        <time>2025-10-15T15:59:01.000Z</time>
      </trkpt>
      <trkpt lat="43.53172" lon="6.10537">
        <ele>497</ele>
        <time>2025-10-15T15:59:13.000Z</time>
      </trkpt>
      <trkpt lat="43.53188" lon="6.10535">
        <ele>498</ele>
        <time>2025-10-15T15:59:25.000Z</time>
      </trkpt>
      <trkpt lat="43.53204" lon="6.10532">
        <ele>498</ele>
        <time>2025-10-15T15:59:40.000Z</time>
      </trkpt>
      <trkpt lat="43.53218" lon="6.10531">
        <ele>499</ele>
        <time>2025-10-15T15:59:52.000Z</time>
      </trkpt>
      <trkpt lat="43.53231" lon="6.10534">
        <ele>499</ele>
        <time>2025-10-15T16:00:04.000Z</time>
      </trkpt>
      <trkpt lat="43.5324" lon="6.10544">
        <ele>499</ele>
        <time>2025-10-15T16:01:49.000Z</time>
      </trkpt>
      <trkpt lat="43.53232" lon="6.10557">
        <ele>498</ele>
        <time>2025-10-15T16:02:52.000Z</time>
      </trkpt>
      <trkpt lat="43.5322" lon="6.10571">
        <ele>498</ele>
        <time>2025-10-15T16:03:04.000Z</time>
      </trkpt>
      <trkpt lat="43.53207" lon="6.10581">
        <ele>498</ele>
        <time>2025-10-15T16:03:16.000Z</time>
      </trkpt>
      <trkpt lat="43.53195" lon="6.10591">
        <ele>498</ele>
        <time>2025-10-15T16:03:28.000Z</time>
      </trkpt>
      <trkpt lat="43.53183" lon="6.10601">
        <ele>498</ele>
        <time>2025-10-15T16:03:37.000Z</time>
      </trkpt>
      <trkpt lat="43.53169" lon="6.1061">
        <ele>498</ele>
        <time>2025-10-15T16:03:49.000Z</time>
      </trkpt>
      <trkpt lat="43.53154" lon="6.10614">
        <ele>498</ele>
        <time>2025-10-15T16:04:01.000Z</time>
      </trkpt>
      <trkpt lat="43.53139" lon="6.10625">
        <ele>499</ele>
        <time>2025-10-15T16:04:13.000Z</time>
      </trkpt>
      <trkpt lat="43.53127" lon="6.1064">
        <ele>499</ele>
        <time>2025-10-15T16:04:25.000Z</time>
      </trkpt>
      <trkpt lat="43.53114" lon="6.10653">
        <ele>499</ele>
        <time>2025-10-15T16:04:37.000Z</time>
      </trkpt>
      <trkpt lat="43.53102" lon="6.10667">
        <ele>499</ele>
        <time>2025-10-15T16:04:49.000Z</time>
      </trkpt>
      <trkpt lat="43.53089" lon="6.1068">
        <ele>499</ele>
        <time>2025-10-15T16:05:01.000Z</time>
      </trkpt>
      <trkpt lat="43.53076" lon="6.10692">
        <ele>500</ele>
        <time>2025-10-15T16:05:13.000Z</time>
      </trkpt>
      <trkpt lat="43.53063" lon="6.10705">
        <ele>500</ele>
        <time>2025-10-15T16:05:25.000Z</time>
      </trkpt>
      <trkpt lat="43.53054" lon="6.10718">
        <ele>501</ele>
        <time>2025-10-15T16:05:37.000Z</time>
      </trkpt>
      <trkpt lat="43.5306" lon="6.10735">
        <ele>501</ele>
        <time>2025-10-15T16:05:49.000Z</time>
      </trkpt>
      <trkpt lat="43.53072" lon="6.10747">
        <ele>500</ele>
        <time>2025-10-15T16:06:16.000Z</time>
      </trkpt>
      <trkpt lat="43.53087" lon="6.10759">
        <ele>500</ele>
        <time>2025-10-15T16:06:30.000Z</time>
      </trkpt>
      <trkpt lat="43.53101" lon="6.10771">
        <ele>499</ele>
        <time>2025-10-15T16:06:42.000Z</time>
      </trkpt>
      <trkpt lat="43.5311" lon="6.10788">
        <ele>499</ele>
        <time>2025-10-15T16:06:54.000Z</time>
      </trkpt>
      <trkpt lat="43.5311" lon="6.10809">
        <ele>499</ele>
        <time>2025-10-15T16:07:06.000Z</time>
      </trkpt>
      <trkpt lat="43.53109" lon="6.10831">
        <ele>498</ele>
        <time>2025-10-15T16:07:18.000Z</time>
      </trkpt>
      <trkpt lat="43.53111" lon="6.10854">
        <ele>497</ele>
        <time>2025-10-15T16:07:30.000Z</time>
      </trkpt>
      <trkpt lat="43.53118" lon="6.10876">
        <ele>497</ele>
        <time>2025-10-15T16:07:43.000Z</time>
      </trkpt>
      <trkpt lat="43.53126" lon="6.10893">
        <ele>496</ele>
        <time>2025-10-15T16:07:55.000Z</time>
      </trkpt>
      <trkpt lat="43.53135" lon="6.10908">
        <ele>495</ele>
        <time>2025-10-15T16:08:04.000Z</time>
      </trkpt>
      <trkpt lat="43.53144" lon="6.10927">
        <ele>494</ele>
        <time>2025-10-15T16:08:16.000Z</time>
      </trkpt>
      <trkpt lat="43.53151" lon="6.10946">
        <ele>493</ele>
        <time>2025-10-15T16:08:28.000Z</time>
      </trkpt>
      <trkpt lat="43.53154" lon="6.10966">
        <ele>492</ele>
        <time>2025-10-15T16:08:40.000Z</time>
      </trkpt>
      <trkpt lat="43.53158" lon="6.10987">
        <ele>492</ele>
        <time>2025-10-15T16:08:52.000Z</time>
      </trkpt>
      <trkpt lat="43.53162" lon="6.11005">
        <ele>492</ele>
        <time>2025-10-15T16:09:01.000Z</time>
      </trkpt>
      <trkpt lat="43.53168" lon="6.11021">
        <ele>491</ele>
        <time>2025-10-15T16:09:13.000Z</time>
      </trkpt>
      <trkpt lat="43.53174" lon="6.11039">
        <ele>491</ele>
        <time>2025-10-15T16:10:21.000Z</time>
      </trkpt>
      <trkpt lat="43.53177" lon="6.11059">
        <ele>490</ele>
        <time>2025-10-15T16:10:36.000Z</time>
      </trkpt>
      <trkpt lat="43.53181" lon="6.11079">
        <ele>490</ele>
        <time>2025-10-15T16:10:48.000Z</time>
      </trkpt>
      <trkpt lat="43.53186" lon="6.111">
        <ele>490</ele>
        <time>2025-10-15T16:11:00.000Z</time>
      </trkpt>
      <trkpt lat="43.53191" lon="6.11119">
        <ele>489</ele>
        <time>2025-10-15T16:11:12.000Z</time>
      </trkpt>
      <trkpt lat="43.53185" lon="6.11137">
        <ele>489</ele>
        <time>2025-10-15T16:11:24.000Z</time>
      </trkpt>
      <trkpt lat="43.53177" lon="6.11154">
        <ele>488</ele>
        <time>2025-10-15T16:11:39.000Z</time>
      </trkpt>
      <trkpt lat="43.53172" lon="6.11171">
        <ele>487</ele>
        <time>2025-10-15T16:11:48.000Z</time>
      </trkpt>
      <trkpt lat="43.53171" lon="6.11192">
        <ele>487</ele>
        <time>2025-10-15T16:12:00.000Z</time>
      </trkpt>
      <trkpt lat="43.5317" lon="6.11211">
        <ele>486</ele>
        <time>2025-10-15T16:12:27.000Z</time>
      </trkpt>
      <trkpt lat="43.53171" lon="6.11229">
        <ele>485</ele>
        <time>2025-10-15T16:12:39.000Z</time>
      </trkpt>
      <trkpt lat="43.53172" lon="6.1125">
        <ele>484</ele>
        <time>2025-10-15T16:12:51.000Z</time>
      </trkpt>
      <trkpt lat="43.53172" lon="6.1127">
        <ele>484</ele>
        <time>2025-10-15T16:13:03.000Z</time>
      </trkpt>
      <trkpt lat="43.53168" lon="6.11288">
        <ele>484</ele>
        <time>2025-10-15T16:13:15.000Z</time>
      </trkpt>
      <trkpt lat="43.53161" lon="6.11305">
        <ele>484</ele>
        <time>2025-10-15T16:13:27.000Z</time>
      </trkpt>
      <trkpt lat="43.53156" lon="6.11322">
        <ele>483</ele>
        <time>2025-10-15T16:13:39.000Z</time>
      </trkpt>
      <trkpt lat="43.53149" lon="6.11338">
        <ele>482</ele>
        <time>2025-10-15T16:13:48.000Z</time>
      </trkpt>
      <trkpt lat="43.53142" lon="6.11356">
        <ele>481</ele>
        <time>2025-10-15T16:14:00.000Z</time>
      </trkpt>
      <trkpt lat="43.5313" lon="6.11371">
        <ele>481</ele>
        <time>2025-10-15T16:14:12.000Z</time>
      </trkpt>
      <trkpt lat="43.53119" lon="6.11384">
        <ele>480</ele>
        <time>2025-10-15T16:14:24.000Z</time>
      </trkpt>
      <trkpt lat="43.53107" lon="6.11397">
        <ele>480</ele>
        <time>2025-10-15T16:14:36.000Z</time>
      </trkpt>
      <trkpt lat="43.53094" lon="6.11409">
        <ele>479</ele>
        <time>2025-10-15T16:14:48.000Z</time>
      </trkpt>
      <trkpt lat="43.53082" lon="6.11422">
        <ele>478</ele>
        <time>2025-10-15T16:15:00.000Z</time>
      </trkpt>
      <trkpt lat="43.5307" lon="6.11435">
        <ele>477</ele>
        <time>2025-10-15T16:15:12.000Z</time>
      </trkpt>
      <trkpt lat="43.5306" lon="6.11451">
        <ele>476</ele>
        <time>2025-10-15T16:15:24.000Z</time>
      </trkpt>
      <trkpt lat="43.53051" lon="6.11466">
        <ele>476</ele>
        <time>2025-10-15T16:15:36.000Z</time>
      </trkpt>
      <trkpt lat="43.5304" lon="6.11482">
        <ele>475</ele>
        <time>2025-10-15T16:15:48.000Z</time>
      </trkpt>
      <trkpt lat="43.53035" lon="6.11501">
        <ele>475</ele>
        <time>2025-10-15T16:16:00.000Z</time>
      </trkpt>
      <trkpt lat="43.53036" lon="6.11519">
        <ele>475</ele>
        <time>2025-10-15T16:16:12.000Z</time>
      </trkpt>
      <trkpt lat="43.53043" lon="6.11535">
        <ele>474</ele>
        <time>2025-10-15T16:16:21.000Z</time>
      </trkpt>
      <trkpt lat="43.53055" lon="6.11547">
        <ele>473</ele>
        <time>2025-10-15T16:16:33.000Z</time>
      </trkpt>
      <trkpt lat="43.53068" lon="6.11562">
        <ele>472</ele>
        <time>2025-10-15T16:16:48.000Z</time>
      </trkpt>
      <trkpt lat="43.53071" lon="6.11581">
        <ele>471</ele>
        <time>2025-10-15T16:17:03.000Z</time>
      </trkpt>
      <trkpt lat="43.53065" lon="6.11598">
        <ele>471</ele>
        <time>2025-10-15T16:17:15.000Z</time>
      </trkpt>
      <trkpt lat="43.53062" lon="6.11618">
        <ele>470</ele>
        <time>2025-10-15T16:17:27.000Z</time>
      </trkpt>
      <trkpt lat="43.53065" lon="6.11636">
        <ele>470</ele>
        <time>2025-10-15T16:17:51.000Z</time>
      </trkpt>
      <trkpt lat="43.53075" lon="6.1165">
        <ele>469</ele>
        <time>2025-10-15T16:18:06.000Z</time>
      </trkpt>
      <trkpt lat="43.53089" lon="6.1166">
        <ele>469</ele>
        <time>2025-10-15T16:18:21.000Z</time>
      </trkpt>
      <trkpt lat="43.53102" lon="6.11667">
        <ele>468</ele>
        <time>2025-10-15T16:18:33.000Z</time>
      </trkpt>
      <trkpt lat="43.53108" lon="6.11684">
        <ele>467</ele>
        <time>2025-10-15T16:18:45.000Z</time>
      </trkpt>
      <trkpt lat="43.53108" lon="6.11705">
        <ele>467</ele>
        <time>2025-10-15T16:18:58.000Z</time>
      </trkpt>
      <trkpt lat="43.53109" lon="6.11728">
        <ele>466</ele>
        <time>2025-10-15T16:19:13.000Z</time>
      </trkpt>
      <trkpt lat="43.53118" lon="6.11745">
        <ele>465</ele>
        <time>2025-10-15T16:19:25.000Z</time>
      </trkpt>
      <trkpt lat="43.53129" lon="6.1176">
        <ele>464</ele>
        <time>2025-10-15T16:19:37.000Z</time>
      </trkpt>
      <trkpt lat="43.53138" lon="6.11776">
        <ele>464</ele>
        <time>2025-10-15T16:19:49.000Z</time>
      </trkpt>
      <trkpt lat="43.53141" lon="6.11794">
        <ele>464</ele>
        <time>2025-10-15T16:20:01.000Z</time>
      </trkpt>
      <trkpt lat="43.53143" lon="6.11814">
        <ele>464</ele>
        <time>2025-10-15T16:20:13.000Z</time>
      </trkpt>
      <trkpt lat="43.5315" lon="6.11833">
        <ele>464</ele>
        <time>2025-10-15T16:20:25.000Z</time>
      </trkpt>
      <trkpt lat="43.53161" lon="6.11847">
        <ele>464</ele>
        <time>2025-10-15T16:20:37.000Z</time>
      </trkpt>
      <trkpt lat="43.53173" lon="6.11858">
        <ele>464</ele>
        <time>2025-10-15T16:20:55.000Z</time>
      </trkpt>
      <trkpt lat="43.53186" lon="6.11868">
        <ele>464</ele>
        <time>2025-10-15T16:21:10.000Z</time>
      </trkpt>
      <trkpt lat="43.53198" lon="6.11879">
        <ele>465</ele>
        <time>2025-10-15T16:21:22.000Z</time>
      </trkpt>
      <trkpt lat="43.5321" lon="6.11892">
        <ele>467</ele>
        <time>2025-10-15T16:21:40.000Z</time>
      </trkpt>
      <trkpt lat="43.53221" lon="6.11907">
        <ele>469</ele>
        <time>2025-10-15T16:21:55.000Z</time>
      </trkpt>
      <trkpt lat="43.53232" lon="6.1192">
        <ele>471</ele>
        <time>2025-10-15T16:22:10.000Z</time>
      </trkpt>
      <trkpt lat="43.53245" lon="6.11927">
        <ele>473</ele>
        <time>2025-10-15T16:22:28.000Z</time>
      </trkpt>
      <trkpt lat="43.53258" lon="6.11923">
        <ele>475</ele>
        <time>2025-10-15T16:22:49.000Z</time>
      </trkpt>
      <trkpt lat="43.53272" lon="6.11923">
        <ele>477</ele>
        <time>2025-10-15T16:23:07.000Z</time>
      </trkpt>
      <trkpt lat="43.53286" lon="6.11926">
        <ele>479</ele>
        <time>2025-10-15T16:23:19.000Z</time>
      </trkpt>
      <trkpt lat="43.533" lon="6.11923">
        <ele>481</ele>
        <time>2025-10-15T16:23:34.000Z</time>
      </trkpt>
      <trkpt lat="43.53314" lon="6.1192">
        <ele>482</ele>
        <time>2025-10-15T16:23:52.000Z</time>
      </trkpt>
      <trkpt lat="43.53328" lon="6.11924">
        <ele>483</ele>
        <time>2025-10-15T16:24:07.000Z</time>
      </trkpt>
      <trkpt lat="43.5334" lon="6.11934">
        <ele>484</ele>
        <time>2025-10-15T16:24:28.000Z</time>
      </trkpt>
      <trkpt lat="43.53351" lon="6.11947">
        <ele>484</ele>
        <time>2025-10-15T16:25:01.000Z</time>
      </trkpt>
      <trkpt lat="43.53361" lon="6.11959">
        <ele>484</ele>
        <time>2025-10-15T16:25:16.000Z</time>
      </trkpt>
      <trkpt lat="43.5337" lon="6.11974">
        <ele>483</ele>
        <time>2025-10-15T16:25:28.000Z</time>
      </trkpt>
      <trkpt lat="43.5338" lon="6.11987">
        <ele>483</ele>
        <time>2025-10-15T16:25:40.000Z</time>
      </trkpt>
      <trkpt lat="43.53391" lon="6.12003">
        <ele>482</ele>
        <time>2025-10-15T16:25:52.000Z</time>
      </trkpt>
      <trkpt lat="43.53404" lon="6.12016">
        <ele>482</ele>
        <time>2025-10-15T16:26:07.000Z</time>
      </trkpt>
      <trkpt lat="43.53417" lon="6.12027">
        <ele>481</ele>
        <time>2025-10-15T16:26:19.000Z</time>
      </trkpt>
      <trkpt lat="43.53429" lon="6.12038">
        <ele>480</ele>
        <time>2025-10-15T16:26:31.000Z</time>
      </trkpt>
      <trkpt lat="43.53441" lon="6.12051">
        <ele>480</ele>
        <time>2025-10-15T16:26:43.000Z</time>
      </trkpt>
      <trkpt lat="43.5345" lon="6.12065">
        <ele>480</ele>
        <time>2025-10-15T16:26:55.000Z</time>
      </trkpt>
      <trkpt lat="43.5346" lon="6.12079">
        <ele>477</ele>
        <time>2025-10-15T16:27:07.000Z</time>
      </trkpt>
      <trkpt lat="43.53469" lon="6.12097">
        <ele>475</ele>
        <time>2025-10-15T16:27:22.000Z</time>
      </trkpt>
    </trkseg>
  </trk>
</gpx>